M I D A S
Marine Information and Data Acquisition System
Tripno 2274 of the Zeeleeuw from 2012-03-09 08:22:30 to 2012-03-09 14:03:56
Back to CruiseResearch ActivitiesStationsMapUnderway DataData graphs

EquipmentUnitsComment
TimeDGPSUTC
LatitudeDGPSDM.mWGS84
LongitudeDGPSDM.mWGS84
TemperatureSBE03/SBE38deg celciusITS90
ConductivitySBE21S/mITS90
SalinitySBE21 Practical Salinity Units
ChlorophylAChelsea fluorimeterg/lCalibrated in Aceton
Missing or incorrect values are displayed as -999
Sea surface data collected by the RV Zeeleeuw from 2012-03-09 07:51:19 to 2012-03-09 14:16:54
                                                                                    Next 1000 lines
Time Latitude Longitude Temperature Conductivity Salinity ChlorophylA
2012-03-09 07:51:29 51°13.64 2°56.014 13.3967 3.686008 25.751136 -2.458615
2012-03-09 07:51:34 51°13.639 2°56.013 13.3949 3.686111 25.751939 -2.458615
2012-03-09 07:51:39 51°13.638 2°56.013 13.3941 3.686318 25.754007 -2.458615
2012-03-09 07:51:44 51°13.638 2°56.013 13.3954 3.686111 25.752402 -2.458615
2012-03-09 07:51:49 51°13.637 2°56.013 13.3984 3.686111 25.752402 -2.458615
2012-03-09 07:51:54 51°13.637 2°56.014 13.4001 3.685283 25.746449 -2.458615
2012-03-09 07:51:59 51°13.638 2°56.014 13.4009 3.68549 25.748053 -2.458615
2012-03-09 07:52:04 51°13.638 2°56.014 13.4024 3.684765 25.742438 -2.458615
2012-03-09 07:52:09 51°13.638 2°56.014 13.4024 3.684972 25.744506 -2.458615
2012-03-09 07:52:14 51°13.637 2°56.014 13.4001 3.685594 25.749319 -2.458615
2012-03-09 07:52:19 51°13.638 2°56.014 13.399 3.685594 25.749319 -2.458615
2012-03-09 07:52:24 51°13.638 2°56.015 13.3956 3.685594 25.749783 -2.458615
2012-03-09 07:52:29 51°13.638 2°56.015 13.3923 3.685801 25.751387 -2.458615
2012-03-09 07:52:34 51°13.637 2°56.015 13.3904 3.685801 25.751387 -2.458615
2012-03-09 07:52:39 51°13.637 2°56.015 13.3844 3.686629 25.757805 -2.458615
2012-03-09 07:52:43 51°13.637 2°56.016 13.3833 3.686836 25.759874 -2.458615
2012-03-09 07:52:49 51°13.637 2°56.016 13.3845 3.686215 25.75506 -2.458615
2012-03-09 07:52:54 51°13.637 2°56.016 13.3831 3.686215 25.75506 -2.458615
2012-03-09 07:52:59 51°13.637 2°56.016 13.3817 3.686008 25.753456 -2.458615
2012-03-09 07:53:04 51°13.637 2°56.017 13.3829 3.685904 25.752654 -2.458615
2012-03-09 07:53:08 51°13.637 2°56.017 13.3853 3.68549 25.749909 -2.458615
2012-03-09 07:53:14 51°13.636 2°56.017 13.386 3.685386 25.749106 -2.458615
2012-03-09 07:53:19 51°13.637 2°56.018 13.3862 3.685386 25.749106 -2.458615
2012-03-09 07:53:24 51°13.636 2°56.018 13.3862 3.685594 25.751175 -2.458615
2012-03-09 07:53:29 51°13.637 2°56.018 13.3892 3.685594 25.751175 -2.458615
2012-03-09 07:53:33 51°13.636 2°56.018 13.3906 3.684661 25.743955 -2.458615
2012-03-09 07:53:39 51°13.636 2°56.018 13.3918 3.685076 25.747627 -2.458615
2012-03-09 07:53:44 51°13.637 2°56.018 13.3933 3.685386 25.750034 -2.458615
2012-03-09 07:53:49 51°13.637 2°56.018 13.3938 3.685386 25.750034 -2.458615
2012-03-09 07:53:53 51°13.637 2°56.018 13.3933 3.685179 25.748893 -2.458615
2012-03-09 07:53:59 51°13.637 2°56.019 13.3907 3.685283 25.749696 -2.458615
2012-03-09 07:54:04 51°13.637 2°56.018 13.3898 3.68549 25.7513 -2.458615
2012-03-09 07:54:08 51°13.636 2°56.019 13.3898 3.685594 25.752566 -2.458615
2012-03-09 07:54:13 51°13.636 2°56.019 13.3893 3.685594 25.752566 -2.458615
2012-03-09 07:54:19 51°13.636 2°56.019 13.3894 3.685594 25.752566 -2.458615
2012-03-09 07:54:24 51°13.635 2°56.019 13.3899 3.685386 25.750962 -2.458615
2012-03-09 07:54:29 51°13.635 2°56.019 13.3893 3.68549 25.751764 -2.458615
2012-03-09 07:54:34 51°13.635 2°56.019 13.3893 3.685179 25.749821 -2.458615
2012-03-09 07:54:38 51°13.635 2°56.02 13.3867 3.685697 25.754297 -2.458615
2012-03-09 07:54:44 51°13.635 2°56.019 13.3844 3.685697 25.754297 -2.458615
2012-03-09 07:54:49 51°13.636 2°56.019 13.3838 3.685904 25.755901 -2.458615
2012-03-09 07:54:54 51°13.635 2°56.019 13.3824 3.685904 25.755901 -2.458615
2012-03-09 07:54:59 51°13.636 2°56.019 13.3828 3.685697 25.754297 -2.458615
2012-03-09 07:55:04 51°13.636 2°56.018 13.3829 3.686111 25.75797 -2.458615
2012-03-09 07:55:09 51°13.636 2°56.018 13.387 3.685594 25.753958 -2.458615
2012-03-09 07:55:14 51°13.637 2°56.019 13.3898 3.685283 25.751551 -2.458615
2012-03-09 07:55:19 51°13.637 2°56.018 13.3906 3.685283 25.751551 -2.458615
2012-03-09 07:55:24 51°13.637 2°56.018 13.3903 3.685386 25.752818 -2.458615
2012-03-09 07:55:29 51°13.636 2°56.018 13.3931 3.685179 25.751213 -2.458615
2012-03-09 07:55:34 51°13.637 2°56.018 13.3874 3.68549 25.75362 -2.458615
2012-03-09 07:55:39 51°13.637 2°56.018 13.3822 3.686422 25.761305 -2.458615
2012-03-09 07:55:44 51°13.636 2°56.017 13.3785 3.686526 25.762572 -2.458615
2012-03-09 07:55:49 51°13.637 2°56.018 13.3733 3.686526 25.762572 -2.458615
2012-03-09 07:55:54 51°13.637 2°56.017 13.3727 3.686629 25.763374 -2.458615
2012-03-09 07:55:59 51°13.637 2°56.017 13.3766 3.686836 25.764979 -2.458615
2012-03-09 07:56:04 51°13.637 2°56.017 13.378 3.686319 25.760967 -2.458615
2012-03-09 07:56:08 51°13.637 2°56.017 13.3788 3.686319 25.761431 -2.458615
2012-03-09 07:56:14 51°13.638 2°56.018 13.3783 3.686629 25.763839 -2.458615
2012-03-09 07:56:19 51°13.638 2°56.017 13.3749 3.686629 25.763839 -2.458615
2012-03-09 07:56:24 51°13.638 2°56.016 13.3722 3.686733 25.765105 -2.458615
2012-03-09 07:56:29 51°13.639 2°56.016 13.3716 3.68694 25.767174 -2.458615
2012-03-09 07:56:34 51°13.638 2°56.016 13.3723 3.686733 25.765569 -2.458615
2012-03-09 07:56:39 51°13.638 2°56.016 13.3706 3.68694 25.767174 -2.458615
2012-03-09 07:56:44 51°13.639 2°56.017 13.3702 3.687044 25.768441 -2.458615
2012-03-09 07:56:49 51°13.638 2°56.017 13.3716 3.687044 25.768441 -2.458615
2012-03-09 07:56:54 51°13.638 2°56.017 13.3741 3.68694 25.767639 -2.458615
2012-03-09 07:56:59 51°13.638 2°56.017 13.3755 3.686836 25.767301 -2.458615
2012-03-09 07:57:04 51°13.638 2°56.016 13.3758 3.68694 25.768103 -2.458615
2012-03-09 07:57:09 51°13.639 2°56.016 13.3753 3.687251 25.77051 -2.458615
2012-03-09 07:57:14 51°13.64 2°56.016 13.3759 3.686319 25.763752 -2.458615
2012-03-09 07:57:19 51°13.64 2°56.016 13.3767 3.686319 25.763752 -2.458615
2012-03-09 07:57:24 51°13.64 2°56.015 13.3769 3.685904 25.760543 -2.458615
2012-03-09 07:57:29 51°13.64 2°56.015 13.3781 3.685904 25.761007 -2.458615
2012-03-09 07:57:34 51°13.64 2°56.016 13.3797 3.685904 25.761471 -2.458615
2012-03-09 07:57:39 51°13.641 2°56.016 13.3817 3.686215 25.763414 -2.458615
2012-03-09 07:57:44 51°13.641 2°56.016 13.3831 3.686422 25.765484 -2.458615
2012-03-09 07:57:49 51°13.641 2°56.016 13.3845 3.686422 25.765484 -2.458615
2012-03-09 07:57:54 51°13.641 2°56.016 13.3845 3.686422 25.765948 -2.458615
2012-03-09 07:57:59 51°13.641 2°56.015 13.3848 3.686422 25.765948 -2.458615
2012-03-09 07:58:04 51°13.641 2°56.016 13.3854 3.685801 25.761597 -2.458615
2012-03-09 07:58:09 51°13.64 2°56.015 13.3853 3.685801 25.761597 -2.458615
2012-03-09 07:58:13 51°13.641 2°56.016 13.3843 3.685801 25.762061 -2.458615
2012-03-09 07:58:19 51°13.64 2°56.015 13.3841 3.685801 25.762061 -2.458615
2012-03-09 07:58:24 51°13.64 2°56.016 13.3847 3.68549 25.759654 -2.458615
2012-03-09 07:58:29 51°13.64 2°56.016 13.385 3.685697 25.761723 -2.458615
2012-03-09 07:58:34 51°13.639 2°56.016 13.3848 3.685697 25.761723 -2.458615
2012-03-09 07:58:38 51°13.639 2°56.017 13.3847 3.685697 25.762187 -2.458615
2012-03-09 07:58:43 51°13.638 2°56.016 13.3837 3.685801 25.76299 -2.458615
2012-03-09 07:58:49 51°13.638 2°56.017 13.3817 3.685801 25.76299 -2.458615
2012-03-09 07:58:54 51°13.638 2°56.017 13.3791 3.686215 25.766665 -2.458615
2012-03-09 07:58:59 51°13.638 2°56.018 13.3768 3.686422 25.768734 -2.458615
2012-03-09 07:59:04 51°13.637 2°56.018 13.3756 3.686422 25.768734 -2.458615
2012-03-09 07:59:09 51°13.637 2°56.018 13.3757 3.686629 25.770804 -2.458615
2012-03-09 07:59:14 51°13.637 2°56.018 13.3789 3.686319 25.768396 -2.458615
2012-03-09 07:59:19 51°13.638 2°56.018 13.3794 3.686319 25.768396 -2.458615
2012-03-09 07:59:24 51°13.638 2°56.018 13.3791 3.687147 25.775282 -2.458615
2012-03-09 07:59:29 51°13.638 2°56.018 13.3787 3.686733 25.772071 -2.458615
2012-03-09 07:59:34 51°13.638 2°56.018 13.3799 3.686733 25.772536 -2.458615
2012-03-09 07:59:39 51°13.638 2°56.018 13.3807 3.686008 25.767382 -2.458615
2012-03-09 07:59:44 51°13.638 2°56.018 13.3815 3.686008 25.767382 -2.458615
2012-03-09 07:59:48 51°13.637 2°56.018 13.3815 3.686008 25.767382 -2.458615
2012-03-09 07:59:54 51°13.637 2°56.018 13.3805 3.686215 25.769451 -2.458615
2012-03-09 07:59:59 51°13.637 2°56.018 13.3809 3.686422 25.771057 -2.458615
2012-03-09 08:00:04 51°13.637 2°56.018 13.3819 3.686526 25.772324 -2.458615
2012-03-09 08:00:09 51°13.637 2°56.018 13.3822 3.68549 25.764762 -2.458615
2012-03-09 08:00:14 51°13.637 2°56.017 13.3839 3.685076 25.761551 -2.458615
2012-03-09 08:00:19 51°13.637 2°56.017 13.3847 3.685076 25.761551 -2.458615
2012-03-09 08:00:24 51°13.638 2°56.018 13.3841 3.68518 25.762818 -2.458615
2012-03-09 08:00:29 51°13.638 2°56.018 13.3853 3.685387 25.764423 -2.458615
2012-03-09 08:00:34 51°13.638 2°56.018 13.3866 3.685387 25.764888 -2.458615
2012-03-09 08:00:39 51°13.638 2°56.018 13.3866 3.68549 25.766155 -2.458615
2012-03-09 08:00:44 51°13.638 2°56.018 13.386 3.68549 25.766155 -2.458615
2012-03-09 08:00:48 51°13.638 2°56.018 13.385 3.68549 25.766155 -2.458615
2012-03-09 08:00:54 51°13.638 2°56.017 13.3845 3.685594 25.767422 -2.458615
2012-03-09 08:00:59 51°13.638 2°56.017 13.3844 3.685387 25.765817 -2.458615
2012-03-09 08:01:04 51°13.638 2°56.017 13.3853 3.68518 25.764676 -2.458615
2012-03-09 08:01:09 51°13.638 2°56.017 13.3872 3.685594 25.768351 -2.458615
2012-03-09 08:01:14 51°13.638 2°56.017 13.3869 3.685801 25.769957 -2.458615
2012-03-09 08:01:19 51°13.638 2°56.017 13.384 3.685801 25.769957 -2.458615
2012-03-09 08:01:24 51°13.637 2°56.017 13.3834 3.686008 25.772027 -2.458615
2012-03-09 08:01:29 51°13.638 2°56.018 13.3836 3.685905 25.771689 -2.458615
2012-03-09 08:01:34 51°13.638 2°56.018 13.382 3.686422 25.775703 -2.458615
2012-03-09 08:01:39 51°13.638 2°56.018 13.3799 3.686215 25.774562 -2.458615
2012-03-09 08:01:44 51°13.638 2°56.018 13.3785 3.686422 25.776168 -2.458615
2012-03-09 08:01:49 51°13.638 2°56.018 13.3777 3.686837 25.779844 -2.458615
2012-03-09 08:01:54 51°13.638 2°56.018 13.3775 3.686837 25.779844 -2.458615
2012-03-09 08:01:59 51°13.638 2°56.018 13.3767 3.686733 25.779506 -2.458615
2012-03-09 08:02:03 51°13.638 2°56.018 13.3766 3.68694 25.781112 -2.458615
2012-03-09 08:02:09 51°13.638 2°56.017 13.3733 3.686837 25.781239 -2.458615
2012-03-09 08:02:14 51°13.638 2°56.017 13.3721 3.686422 25.778027 -2.458615
2012-03-09 08:02:19 51°13.638 2°56.017 13.3726 3.686422 25.778027 -2.458615
2012-03-09 08:02:24 51°13.639 2°56.017 13.3731 3.686422 25.778027 -2.458615
2012-03-09 08:02:29 51°13.639 2°56.017 13.3743 3.686215 25.776886 -2.458615
2012-03-09 08:02:34 51°13.639 2°56.017 13.3755 3.685905 25.774942 -2.458615
2012-03-09 08:02:39 51°13.638 2°56.016 13.3774 3.686112 25.777013 -2.458615
2012-03-09 08:02:43 51°13.638 2°56.016 13.3799 3.68518 25.769787 -2.458615
2012-03-09 08:02:49 51°13.638 2°56.016 13.3802 3.68518 25.769787 -2.458615
2012-03-09 08:02:54 51°13.638 2°56.016 13.3798 3.685283 25.771054 -2.458615
2012-03-09 08:02:59 51°13.638 2°56.016 13.3806 3.685283 25.771519 -2.458615
2012-03-09 08:03:04 51°13.638 2°56.016 13.3818 3.684973 25.769575 -2.458615
2012-03-09 08:03:08 51°13.638 2°56.016 13.3826 3.684766 25.767969 -2.458615
2012-03-09 08:03:14 51°13.638 2°56.017 13.3827 3.684558 25.766828 -2.458615
2012-03-09 08:03:19 51°13.638 2°56.016 13.3833 3.684558 25.766828 -2.458615
2012-03-09 08:03:24 51°13.638 2°56.017 13.382 3.684351 25.765687 -2.458615
2012-03-09 08:03:29 51°13.638 2°56.017 13.3815 3.684351 25.766151 -2.458615
2012-03-09 08:03:34 51°13.638 2°56.017 13.3817 3.684455 25.766954 -2.458615
2012-03-09 08:03:39 51°13.638 2°56.017 13.3819 3.684662 25.769025 -2.458615
2012-03-09 08:03:44 51°13.638 2°56.017 13.3824 3.684869 25.770631 -2.458615
2012-03-09 08:03:49 51°13.638 2°56.017 13.382 3.684766 25.770293 -2.458615
2012-03-09 08:03:54 51°13.638 2°56.017 13.3818 3.684766 25.770293 -2.458615
2012-03-09 08:03:59 51°13.638 2°56.017 13.3799 3.684662 25.769954 -2.458615
2012-03-09 08:04:04 51°13.638 2°56.017 13.3798 3.684973 25.772828 -2.458615
2012-03-09 08:04:09 51°13.638 2°56.017 13.3791 3.685076 25.773632 -2.458615
2012-03-09 08:04:14 51°13.638 2°56.017 13.3796 3.685283 25.775703 -2.458615
2012-03-09 08:04:19 51°13.638 2°56.017 13.3791 3.685283 25.775703 -2.458615
2012-03-09 08:04:24 51°13.638 2°56.017 13.3792 3.68518 25.775364 -2.458615
2012-03-09 08:04:29 51°13.638 2°56.017 13.3784 3.685283 25.776167 -2.458615
2012-03-09 08:04:34 51°13.637 2°56.016 13.3776 3.685283 25.776632 -2.458615
2012-03-09 08:04:39 51°13.637 2°56.017 13.3758 3.685076 25.775491 -2.458615
2012-03-09 08:04:44 51°13.637 2°56.018 13.3755 3.685387 25.777901 -2.458615
2012-03-09 08:04:48 51°13.637 2°56.018 13.3743 3.685387 25.777901 -2.458615
2012-03-09 08:04:53 51°13.637 2°56.018 13.3735 3.68518 25.776759 -2.458615
2012-03-09 08:04:59 51°13.637 2°56.017 13.3748 3.685387 25.778831 -2.458615
2012-03-09 08:05:04 51°13.637 2°56.017 13.3743 3.685387 25.778831 -2.458615
2012-03-09 08:05:09 51°13.638 2°56.018 13.3737 3.685387 25.779296 -2.458615
2012-03-09 08:05:14 51°13.637 2°56.017 13.3742 3.685698 25.78217 -2.458615
2012-03-09 08:05:19 51°13.637 2°56.017 13.3724 3.685698 25.78217 -2.458615
2012-03-09 08:05:24 51°13.637 2°56.017 13.3715 3.685698 25.78217 -2.458615
2012-03-09 08:05:29 51°13.637 2°56.017 13.3724 3.686112 25.785848 -2.458615
2012-03-09 08:05:34 51°13.637 2°56.018 13.3741 3.685594 25.781832 -2.458615
2012-03-09 08:05:39 51°13.637 2°56.018 13.3771 3.684869 25.77714 -2.458615
2012-03-09 08:05:44 51°13.637 2°56.018 13.3789 3.684041 25.770714 -2.458615
2012-03-09 08:05:49 51°13.636 2°56.018 13.3814 3.684041 25.770714 -2.458615
2012-03-09 08:05:53 51°13.637 2°56.018 13.3841 3.683626 25.767967 -2.458615
2012-03-09 08:05:59 51°13.636 2°56.017 13.3861 3.683419 25.766825 -2.458615
2012-03-09 08:06:04 51°13.636 2°56.017 13.3867 3.683419 25.766825 -2.458615
2012-03-09 08:06:09 51°13.636 2°56.017 13.3873 3.683419 25.76729 -2.458615
2012-03-09 08:06:14 51°13.636 2°56.016 13.3873 3.683316 25.766952 -2.458615
2012-03-09 08:06:19 51°13.636 2°56.016 13.384 3.683316 25.766952 -2.458615
2012-03-09 08:06:24 51°13.636 2°56.016 13.3852 3.683626 25.769361 -2.458615
2012-03-09 08:06:29 51°13.636 2°56.017 13.3843 3.682798 25.7634 -2.458615
2012-03-09 08:06:34 51°13.636 2°56.017 13.3831 3.682694 25.763062 -2.458615
2012-03-09 08:06:39 51°13.636 2°56.017 13.3827 3.682694 25.763062 -2.458615
2012-03-09 08:06:44 51°13.636 2°56.017 13.3839 3.682798 25.76433 -2.458615
2012-03-09 08:06:48 51°13.636 2°56.017 13.3854 3.682798 25.76433 -2.458615
2012-03-09 08:06:53 51°13.636 2°56.017 13.3859 3.682798 25.764795 -2.458615
2012-03-09 08:06:59 51°13.636 2°56.017 13.3871 3.682694 25.764457 -2.458615
2012-03-09 08:07:04 51°13.637 2°56.017 13.3871 3.682591 25.763654 -2.458615
2012-03-09 08:07:09 51°13.637 2°56.017 13.3875 3.682798 25.765725 -2.458615
2012-03-09 08:07:14 51°13.636 2°56.017 13.3867 3.682591 25.764583 -2.458615
2012-03-09 08:07:19 51°13.636 2°56.017 13.3884 3.682073 25.760567 -2.458615
2012-03-09 08:07:24 51°13.637 2°56.018 13.3909 3.682073 25.760567 -2.458615
2012-03-09 08:07:29 51°13.637 2°56.018 13.3917 3.68197 25.760229 -2.458615
2012-03-09 08:07:34 51°13.637 2°56.018 13.3943 3.681866 25.75989 -2.458615
2012-03-09 08:07:39 51°13.637 2°56.018 13.3983 3.681037 25.753464 -2.458615
2012-03-09 08:07:44 51°13.637 2°56.018 13.3995 3.680727 25.751519 -2.458615
2012-03-09 08:07:49 51°13.637 2°56.017 13.3979 3.680727 25.751519 -2.458615
2012-03-09 08:07:54 51°13.637 2°56.017 13.3979 3.681245 25.756 -2.458615
2012-03-09 08:07:58 51°13.637 2°56.017 13.3964 3.681141 25.755197 -2.458615
2012-03-09 08:08:04 51°13.636 2°56.018 13.3924 3.681555 25.758875 -2.458615
2012-03-09 08:08:09 51°13.636 2°56.017 13.3881 3.681659 25.760143 -2.458615
2012-03-09 08:08:14 51°13.636 2°56.018 13.3894 3.681866 25.762215 -2.458615
2012-03-09 08:08:19 51°13.637 2°56.019 13.3846 3.681866 25.762215 -2.458615
2012-03-09 08:08:24 51°13.637 2°56.019 13.3812 3.682384 25.766232 -2.458615
2012-03-09 08:08:29 51°13.638 2°56.02 13.3831 3.682177 25.76509 -2.458615
2012-03-09 08:08:34 51°13.638 2°56.02 13.3824 3.682384 25.766697 -2.458615
2012-03-09 08:08:39 51°13.638 2°56.019 13.38 3.682487 25.767965 -2.458615
2012-03-09 08:08:44 51°13.638 2°56.019 13.3812 3.68228 25.766823 -2.458615
2012-03-09 08:08:49 51°13.638 2°56.019 13.3799 3.68228 25.766823 -2.458615
2012-03-09 08:08:54 51°13.637 2°56.019 13.3806 3.68228 25.766823 -2.458615
2012-03-09 08:08:59 51°13.637 2°56.018 13.3807 3.68228 25.767289 -2.458615
2012-03-09 08:09:04 51°13.637 2°56.018 13.3801 3.68228 25.767754 -2.458615
2012-03-09 08:09:09 51°13.637 2°56.018 13.3802 3.682073 25.766612 -2.458615
2012-03-09 08:09:14 51°13.637 2°56.018 13.3808 3.682073 25.766612 -2.458615
2012-03-09 08:09:19 51°13.637 2°56.018 13.3828 3.682073 25.766612 -2.458615
2012-03-09 08:09:24 51°13.638 2°56.018 13.3837 3.682177 25.76788 -2.458615
2012-03-09 08:09:29 51°13.637 2°56.018 13.3847 3.682384 25.769953 -2.458615
2012-03-09 08:09:34 51°13.638 2°56.018 13.3848 3.682177 25.768811 -2.458615
2012-03-09 08:09:39 51°13.637 2°56.018 13.3854 3.682177 25.768811 -2.458615
2012-03-09 08:09:43 51°13.637 2°56.018 13.3858 3.682073 25.768472 -2.458615
2012-03-09 08:09:48 51°13.638 2°56.019 13.385 3.682073 25.768472 -2.458615
2012-03-09 08:09:53 51°13.637 2°56.019 13.3863 3.681866 25.767331 -2.458615
2012-03-09 08:09:59 51°13.637 2°56.018 13.3873 3.681245 25.762509 -2.458615
2012-03-09 08:10:04 51°13.637 2°56.018 13.3894 3.680934 25.760564 -2.458615
2012-03-09 08:10:09 51°13.637 2°56.018 13.3903 3.680416 25.756546 -2.458615
2012-03-09 08:10:14 51°13.636 2°56.018 13.391 3.68052 25.757815 -2.458615
2012-03-09 08:10:19 51°13.637 2°56.018 13.3907 3.68052 25.757815 -2.458615
2012-03-09 08:10:24 51°13.637 2°56.018 13.3904 3.681038 25.762298 -2.458615
2012-03-09 08:10:29 51°13.637 2°56.018 13.3891 3.680934 25.761494 -2.458615
2012-03-09 08:10:34 51°13.637 2°56.018 13.3885 3.681038 25.762763 -2.458615
2012-03-09 08:10:39 51°13.637 2°56.018 13.3886 3.680934 25.762424 -2.458615
2012-03-09 08:10:44 51°13.637 2°56.018 13.3877 3.681245 25.7653 -2.458615
2012-03-09 08:10:49 51°13.637 2°56.018 13.3873 3.680934 25.763355 -2.458615
2012-03-09 08:10:54 51°13.638 2°56.019 13.387 3.680934 25.763355 -2.458615
2012-03-09 08:10:59 51°13.638 2°56.019 13.3863 3.680623 25.760944 -2.458615
2012-03-09 08:11:04 51°13.638 2°56.019 13.3862 3.680831 25.763016 -2.458615
2012-03-09 08:11:08 51°13.637 2°56.019 13.3873 3.680623 25.761874 -2.458615
2012-03-09 08:11:14 51°13.638 2°56.019 13.3896 3.680313 25.759928 -2.458615
2012-03-09 08:11:19 51°13.637 2°56.019 13.391 3.680313 25.759928 -2.458615
2012-03-09 08:11:24 51°13.637 2°56.019 13.3916 3.680209 25.759125 -2.458615
2012-03-09 08:11:28 51°13.638 2°56.019 13.3914 3.680002 25.757983 -2.458615
2012-03-09 08:11:34 51°13.637 2°56.019 13.3924 3.680416 25.761662 -2.458615
2012-03-09 08:11:39 51°13.637 2°56.018 13.3939 3.67907 25.75168 -2.458615
2012-03-09 08:11:44 51°13.637 2°56.019 13.363 3.684766 25.795419 -2.458615
2012-03-09 08:11:49 51°13.637 2°56.019 13.3293 3.684766 25.795419 -2.458615
2012-03-09 08:11:54 51°13.637 2°56.019 13.3572 3.683109 25.78349 -2.458615
2012-03-09 08:11:59 51°13.637 2°56.019 13.3711 3.679899 25.758574 -2.458615
2012-03-09 08:12:04 51°13.637 2°56.018 13.3665 3.679588 25.756163 -2.458615
2012-03-09 08:12:08 51°13.637 2°56.018 13.3625 3.680209 25.761451 -2.458615
2012-03-09 08:12:14 51°13.637 2°56.019 13.3629 3.680934 25.768007 -2.458615
2012-03-09 08:12:19 51°13.637 2°56.019 13.3659 3.680934 25.768007 -2.458615
2012-03-09 08:12:24 51°13.638 2°56.019 13.3686 3.68052 25.764792 -2.458615
2012-03-09 08:12:29 51°13.637 2°56.018 13.3702 3.680831 25.767204 -2.458615
2012-03-09 08:12:34 51°13.637 2°56.018 13.3705 3.680727 25.766865 -2.458615
2012-03-09 08:12:39 51°13.637 2°56.018 13.3718 3.680831 25.768134 -2.458615
2012-03-09 08:12:44 51°13.637 2°56.018 13.3712 3.681348 25.772619 -2.458615
2012-03-09 08:12:49 51°13.637 2°56.018 13.3709 3.681348 25.772619 -2.458615
2012-03-09 08:12:54 51°13.637 2°56.019 13.3699 3.681348 25.772619 -2.458615
2012-03-09 08:12:59 51°13.637 2°56.018 13.3705 3.681556 25.774692 -2.458615
2012-03-09 08:13:04 51°13.636 2°56.018 13.3675 3.681659 25.775961 -2.458615
2012-03-09 08:13:08 51°13.637 2°56.018 13.3683 3.682281 25.78125 -2.458615
2012-03-09 08:13:14 51°13.637 2°56.018 13.3632 3.682488 25.782858 -2.458615
2012-03-09 08:13:19 51°13.637 2°56.018 13.3644 3.682488 25.782858 -2.458615
2012-03-09 08:13:24 51°13.637 2°56.018 13.3644 3.682695 25.784931 -2.458615
2012-03-09 08:13:28 51°13.637 2°56.019 13.3656 3.682798 25.786201 -2.458615
2012-03-09 08:13:34 51°13.637 2°56.018 13.3657 3.682902 25.787005 -2.458615
2012-03-09 08:13:39 51°13.637 2°56.018 13.3663 3.682695 25.785863 -2.458615
2012-03-09 08:13:44 51°13.637 2°56.018 13.3675 3.682591 25.785525 -2.458615
2012-03-09 08:13:48 51°13.637 2°56.018 13.3737 3.682591 25.785525 -2.458615
2012-03-09 08:13:54 51°13.637 2°56.018 13.3755 3.681245 25.775539 -2.458615
2012-03-09 08:13:59 51°13.637 2°56.018 13.3887 3.682074 25.781971 -2.458615
2012-03-09 08:14:04 51°13.637 2°56.018 13.3996 3.678967 25.758319 -2.458615
2012-03-09 08:14:08 51°13.637 2°56.018 13.4003 3.681038 25.774863 -2.458615
2012-03-09 08:14:14 51°13.637 2°56.018 13.4061 3.679174 25.760392 -2.458615
2012-03-09 08:14:19 51°13.637 2°56.018 13.4091 3.679174 25.760392 -2.458615
2012-03-09 08:14:24 51°13.637 2°56.017 13.395 3.676274 25.73835 -2.458615
2012-03-09 08:14:29 51°13.637 2°56.017 13.4058 3.678552 25.756499 -2.458615
2012-03-09 08:14:34 51°13.637 2°56.018 13.4059 3.677206 25.746514 -2.458615
2012-03-09 08:14:39 51°13.637 2°56.018 13.4111 3.677931 25.752607 -2.458615
2012-03-09 08:14:44 51°13.637 2°56.018 13.411 3.676999 25.745372 -2.458615
2012-03-09 08:14:49 51°13.637 2°56.018 13.4084 3.676999 25.745372 -2.458615
2012-03-09 08:14:54 51°13.637 2°56.018 13.4077 3.678242 25.755484 -2.458615
2012-03-09 08:14:59 51°13.636 2°56.018 13.4059 3.677103 25.747106 -2.458615
2012-03-09 08:15:04 51°13.636 2°56.018 13.4059 3.675963 25.738728 -2.458615
2012-03-09 08:15:09 51°13.637 2°56.018 13.4062 3.676481 25.743213 -2.458615
2012-03-09 08:15:14 51°13.637 2°56.018 13.4061 3.676067 25.739997 -2.458615
2012-03-09 08:15:19 51°13.637 2°56.018 13.4053 3.676067 25.739997 -2.458615
2012-03-09 08:15:24 51°13.637 2°56.019 13.4041 3.675653 25.736781 -2.458615
2012-03-09 08:15:28 51°13.636 2°56.018 13.4041 3.676895 25.746428 -2.458615
2012-03-09 08:15:34 51°13.637 2°56.018 13.4041 3.676585 25.743551 -2.458615
2012-03-09 08:15:39 51°13.636 2°56.018 13.4048 3.676999 25.747232 -2.458615
2012-03-09 08:15:44 51°13.637 2°56.018 13.3955 3.679588 25.767797 -2.458615
2012-03-09 08:15:48 51°13.637 2°56.018 13.3894 3.679588 25.767797 -2.458615
2012-03-09 08:15:54 51°13.637 2°56.018 13.3713 3.679485 25.767459 -2.458615
2012-03-09 08:15:59 51°13.637 2°56.019 13.3726 3.680727 25.777573 -2.458615
2012-03-09 08:16:04 51°13.636 2°56.018 13.3787 3.680417 25.776092 -2.458615
2012-03-09 08:16:09 51°13.636 2°56.018 13.3939 3.678242 25.760138 -2.458615
2012-03-09 08:16:14 51°13.636 2°56.018 13.3925 3.678449 25.762211 -2.458615
2012-03-09 08:16:19 51°13.636 2°56.018 13.3992 3.676688 25.749008 -2.458615
2012-03-09 08:16:24 51°13.636 2°56.018 13.4022 3.676688 25.749008 -2.458615
2012-03-09 08:16:28 51°13.636 2°56.018 13.4049 3.676067 25.744649 -2.458615
2012-03-09 08:16:34 51°13.636 2°56.018 13.4059 3.67586 25.74304 -2.458615
2012-03-09 08:16:39 51°13.636 2°56.018 13.4068 3.675239 25.738681 -2.458615
2012-03-09 08:16:44 51°13.636 2°56.018 13.4074 3.675135 25.737877 -2.458615
2012-03-09 08:16:49 51°13.636 2°56.019 13.4081 3.675135 25.737877 -2.458615
2012-03-09 08:16:54 51°13.636 2°56.018 13.4087 3.674721 25.734661 -2.458615
2012-03-09 08:16:59 51°13.636 2°56.018 13.4096 3.674306 25.73191 -2.458615
2012-03-09 08:17:04 51°13.636 2°56.018 13.4096 3.673685 25.727551 -2.458615
2012-03-09 08:17:09 51°13.636 2°56.018 13.4102 3.673685 25.728016 -2.458615
2012-03-09 08:17:14 51°13.635 2°56.018 13.41 3.673478 25.726408 -2.458615
2012-03-09 08:17:19 51°13.635 2°56.018 13.4103 3.673478 25.726408 -2.458615
2012-03-09 08:17:24 51°13.636 2°56.018 13.4109 3.673374 25.726069 -2.458615
2012-03-09 08:17:29 51°13.635 2°56.018 13.4125 3.673064 25.724122 -2.458615
2012-03-09 08:17:34 51°13.635 2°56.018 13.4124 3.672442 25.719298 -2.458615
2012-03-09 08:17:39 51°13.635 2°56.018 13.4112 3.672442 25.719763 -2.458615
2012-03-09 08:17:44 51°13.635 2°56.018 13.4111 3.671925 25.715743 -2.458615
2012-03-09 08:17:48 51°13.635 2°56.018 13.412 3.671925 25.715743 -2.458615
2012-03-09 08:17:54 51°13.635 2°56.018 13.4127 3.672235 25.718619 -2.458615
2012-03-09 08:17:59 51°13.635 2°56.018 13.4128 3.671717 25.714599 -2.458615
2012-03-09 08:18:04 51°13.635 2°56.018 13.4135 3.671407 25.712652 -2.458615
2012-03-09 08:18:08 51°13.635 2°56.018 13.4143 3.671303 25.712313 -2.458615
2012-03-09 08:18:14 51°13.635 2°56.017 13.4145 3.670993 25.709901 -2.458615
2012-03-09 08:18:19 51°13.635 2°56.017 13.4141 3.670993 25.709901 -2.458615
2012-03-09 08:18:24 51°13.635 2°56.017 13.4146 3.670889 25.709561 -2.458615
2012-03-09 08:18:28 51°13.635 2°56.017 13.415 3.670164 25.704398 -2.458615
2012-03-09 08:18:33 51°13.635 2°56.017 13.415 3.670682 25.708883 -2.458615
2012-03-09 08:18:39 51°13.634 2°56.017 13.4106 3.670578 25.708543 -2.458615
2012-03-09 08:18:44 51°13.634 2°56.017 13.3777 3.676067 25.751164 -2.458615
2012-03-09 08:18:49 51°13.635 2°56.016 13.1749 3.676067 25.751164 -2.458615
2012-03-09 08:18:54 51°13.635 2°56.015 13.2312 3.693052 25.883108 -2.458615
2012-03-09 08:18:59 51°13.636 2°56.012 13.1462 3.697505 25.918188 -2.458615
2012-03-09 08:19:04 51°13.637 2°56.008 13.2151 3.683627 25.810817 -2.458615
2012-03-09 08:19:09 51°13.639 2°56.002 13.2446 3.684456 25.817253 -2.458615
2012-03-09 08:19:14 51°13.641 2°55.996 13.2023 3.686631 25.834617 -2.458615
2012-03-09 08:19:19 51°13.642 2°55.99 13.2767 3.686631 25.834617 -2.458615
2012-03-09 08:19:24 51°13.644 2°55.983 13.2763 3.668921 25.697537 -2.458615
2012-03-09 08:19:29 51°13.646 2°55.976 13.2731 3.671614 25.718444 -2.458615
2012-03-09 08:19:34 51°13.648 2°55.969 13.2665 3.675239 25.747057 -2.458615
2012-03-09 08:19:39 51°13.65 2°55.962 13.2804 3.675756 25.751079 -2.458615
2012-03-09 08:19:44 51°13.652 2°55.955 13.2616 3.677103 25.762001 -2.458615
2012-03-09 08:19:49 51°13.653 2°55.947 13.3026 3.66975 25.705364 -2.458615
2012-03-09 08:19:54 51°13.655 2°55.94 13.3098 3.66975 25.705364 -2.458615
2012-03-09 08:19:59 51°13.657 2°55.935 13.3156 3.65463 25.587996 -2.458615
2012-03-09 08:20:04 51°13.658 2°55.932 13.3158 3.634747 25.434222 -2.458615
2012-03-09 08:20:08 51°13.659 2°55.931 13.1215 3.651938 25.567565 -2.458615
2012-03-09 08:20:14 51°13.659 2°55.931 13.2302 3.676481 25.758106 -2.458615
2012-03-09 08:20:19 51°13.66 2°55.93 13.1565 3.676481 25.758106 -2.458615
2012-03-09 08:20:24 51°13.661 2°55.929 13.2209 3.680624 25.790284 -2.458615
2012-03-09 08:20:28 51°13.662 2°55.926 13.2007 3.687356 25.84352 -2.458615
2012-03-09 08:20:34 51°13.663 2°55.922 13.2502 3.674928 25.746972 -2.458615
2012-03-09 08:20:39 51°13.664 2°55.918 13.2453 3.679071 25.779615 -2.458615
2012-03-09 08:20:44 51°13.666 2°55.914 13.2043 3.682385 25.806295 -2.458615
2012-03-09 08:20:48 51°13.667 2°55.911 13.2206 3.682385 25.806295 -2.458615
2012-03-09 08:20:54 51°13.669 2°55.904 13.243 3.680728 25.793887 -2.458615
2012-03-09 08:20:59 51°13.672 2°55.898 13.2482 3.68021 25.790331 -2.458615
2012-03-09 08:21:04 51°13.674 2°55.89 13.264 3.680624 25.793549 -2.458615
2012-03-09 08:21:09 51°13.676 2°55.883 13.2719 3.679278 25.783555 -2.458615
2012-03-09 08:21:14 51°13.679 2°55.875 13.2635 3.681142 25.798039 -2.458615
2012-03-09 08:21:19 51°13.682 2°55.867 13.2727 3.681142 25.798039 -2.458615
2012-03-09 08:21:24 51°13.685 2°55.857 13.2772 3.678863 25.780803 -2.458615
2012-03-09 08:21:29 51°13.689 2°55.848 13.2756 3.679588 25.786436 -2.458615
2012-03-09 08:21:34 51°13.692 2°55.838 13.2762 3.676896 25.765517 -2.458615
2012-03-09 08:21:39 51°13.696 2°55.828 13.2825 3.675549 25.755524 -2.458615
2012-03-09 08:21:44 51°13.7 2°55.818 13.2815 3.678139 25.776103 -2.458615
2012-03-09 08:21:49 51°13.705 2°55.808 13.2843 3.672443 25.732321 -2.458615
2012-03-09 08:21:54 51°13.709 2°55.797 13.2817 3.672443 25.732321 -2.458615
2012-03-09 08:21:59 51°13.713 2°55.787 13.2878 3.6712 25.722668 -2.458615
2012-03-09 08:22:04 51°13.718 2°55.778 13.2816 3.667782 25.69659 -2.458615
2012-03-09 08:22:09 51°13.721 2°55.768 13.28 3.668922 25.705902 -2.458615
2012-03-09 08:22:14 51°13.725 2°55.759 13.2759 3.670164 25.715554 -2.458615
2012-03-09 08:22:19 51°13.729 2°55.75 13.2859 3.670164 25.715554 -2.458615
2012-03-09 08:22:24 51°13.734 2°55.742 13.2865 3.668404 25.702345 -2.458615
2012-03-09 08:22:28 51°13.737 2°55.736 13.2792 3.673064 25.73901 -2.458615
2012-03-09 08:22:34 51°13.743 2°55.727 13.2848 3.670268 25.717289 -2.458615
2012-03-09 08:22:39 51°13.747 2°55.719 13.2892 3.673064 25.739475 -2.458615
2012-03-09 08:22:44 51°13.752 2°55.711 13.2917 3.670579 25.720633 -2.458615
2012-03-09 08:22:49 51°13.757 2°55.704 13.2917 3.670579 25.720633 -2.458615
2012-03-09 08:22:54 51°13.763 2°55.698 13.2928 3.671511 25.727873 -2.458615
2012-03-09 08:22:59 51°13.768 2°55.691 13.2663 3.671407 25.727534 -2.458615
2012-03-09 08:23:04 51°13.774 2°55.685 13.2814 3.674618 25.752941 -2.458615
2012-03-09 08:23:08 51°13.779 2°55.68 13.2762 3.677621 25.776742 -2.458615
2012-03-09 08:23:14 51°13.787 2°55.672 13.2843 3.674618 25.753407 -2.458615
2012-03-09 08:23:19 51°13.794 2°55.666 13.2836 3.67555 25.761114 -2.458615
2012-03-09 08:23:24 51°13.801 2°55.66 13.2884 3.67555 25.761114 -2.458615
2012-03-09 08:23:29 51°13.808 2°55.655 13.2919 3.667058 25.695607 -2.458615
2012-03-09 08:23:34 51°13.814 2°55.649 13.2858 3.66975 25.716523 -2.458615
2012-03-09 08:23:39 51°13.821 2°55.644 13.265 3.671925 25.733418 -2.458615
2012-03-09 08:23:44 51°13.827 2°55.639 13.2985 3.667058 25.695607 -2.458615
2012-03-09 08:23:49 51°13.834 2°55.634 13.2296 3.667058 25.695607 -2.458615
2012-03-09 08:23:54 51°13.84 2°55.63 13.2482 3.671821 25.733079 -2.458615
2012-03-09 08:23:59 51°13.847 2°55.626 13.2749 3.673582 25.746758 -2.458615
2012-03-09 08:24:04 51°13.853 2°55.621 13.2734 3.666333 25.690906 -2.458615
2012-03-09 08:24:09 51°13.859 2°55.617 13.2753 3.670372 25.722746 -2.458615
2012-03-09 08:24:14 51°13.865 2°55.613 13.1418 3.678035 25.782293 -2.458615
2012-03-09 08:24:19 51°13.871 2°55.609 13.2768 3.678035 25.782293 -2.458615
2012-03-09 08:24:24 51°13.878 2°55.606 13.2426 3.666333 25.691835 -2.458615
2012-03-09 08:24:29 51°13.884 2°55.602 13.203 3.666229 25.691031 -2.458615
2012-03-09 08:24:34 51°13.89 2°55.6 13.2318 3.676689 25.77323 -2.458615
2012-03-09 08:24:37 51°13.894 2°55.598 13.2766 3.670268 25.723338 -2.458615
2012-03-09 08:24:44 51°13.902 2°55.595 13.2647 3.670682 25.727021 -2.458615
2012-03-09 08:24:49 51°13.908 2°55.592 13.2718 3.66509 25.684041 -2.458615
2012-03-09 08:24:54 51°13.913 2°55.589 13.256 3.66509 25.684041 -2.458615
2012-03-09 08:24:59 51°13.918 2°55.587 13.2321 3.669336 25.717492 -2.458615
2012-03-09 08:25:04 51°13.923 2°55.584 13.2329 3.67265 25.743242 -2.458615
2012-03-09 08:25:09 51°13.928 2°55.582 13.2599 3.666954 25.699452 -2.458615
2012-03-09 08:25:14 51°13.933 2°55.581 13.2502 3.671718 25.736465 -2.458615
2012-03-09 08:25:19 51°13.937 2°55.578 13.2528 3.671718 25.736465 -2.458615
2012-03-09 08:25:24 51°13.941 2°55.576 13.2683 3.670475 25.727274 -2.458615
2012-03-09 08:25:28 51°13.945 2°55.575 13.2563 3.66944 25.719227 -2.458615
2012-03-09 08:25:33 51°13.95 2°55.573 13.2461 3.671511 25.735787 -2.458615
2012-03-09 08:25:38 51°13.953 2°55.571 13.2446 3.669232 25.718083 -2.458615
2012-03-09 08:25:43 51°13.957 2°55.569 13.1905 3.678139 25.787764 -2.458615
2012-03-09 08:25:48 51°13.961 2°55.566 13.2534 3.678139 25.787764 -2.458615
2012-03-09 08:25:52 51°13.965 2°55.566 13.2465 3.6712 25.733838 -2.458615
2012-03-09 08:25:57 51°13.969 2°55.564 13.249 3.669025 25.717405 -2.458615
2012-03-09 08:26:02 51°13.974 2°55.563 13.2675 3.679071 25.795475 -2.458615
2012-03-09 08:26:08 51°13.979 2°55.56 13.2744 3.661776 25.66155 -2.458615
2012-03-09 08:26:13 51°13.982 2°55.56 13.2743 3.660223 25.650412 -2.458615
2012-03-09 08:26:19 51°13.986 2°55.558 13.2898 3.660223 25.650412 -2.458615
2012-03-09 08:26:24 51°13.988 2°55.557 13.2927 3.645932 25.539434 -2.458615
2012-03-09 08:26:28 51°13.988 2°55.556 13.2721 3.638786 25.484431 -2.458615
2012-03-09 08:26:34 51°13.988 2°55.555 13.2428 3.656495 25.621455 -2.458615
2012-03-09 08:26:39 51°13.988 2°55.554 13.2691 3.662501 25.668575 -2.458615
2012-03-09 08:26:44 51°13.988 2°55.552 13.2302 3.664469 25.684326 -2.458615
2012-03-09 08:26:48 51°13.987 2°55.551 13.1979 3.664469 25.684326 -2.458615
2012-03-09 08:26:53 51°13.987 2°55.548 13.2096 3.674203 25.76044 -2.458615
2012-03-09 08:26:58 51°13.987 2°55.546 13.2118 3.675136 25.768617 -2.458615
2012-03-09 08:27:03 51°13.988 2°55.546 13.1645 3.678242 25.793703 -2.458615
2012-03-09 08:27:08 51°13.989 2°55.545 13.1461 3.677207 25.786118 -2.458615
2012-03-09 08:27:13 51°13.991 2°55.545 13.2497 3.682074 25.82443 -2.458615
2012-03-09 08:27:18 51°13.993 2°55.547 13.2394 3.682074 25.82443 -2.458615
2012-03-09 08:27:23 51°13.995 2°55.549 13.1894 3.677518 25.789467 -2.458615
2012-03-09 08:27:28 51°13.997 2°55.552 13.2229 3.67731 25.788324 -2.458615
2012-03-09 08:27:33 51°14 2°55.557 13.2387 3.675964 25.777857 -2.458615
2012-03-09 08:27:39 51°14.002 2°55.562 13.237 3.673479 25.758535 -2.458615
2012-03-09 08:27:44 51°14.004 2°55.567 13.2322 3.674514 25.766586 -2.458615
2012-03-09 08:27:48 51°14.005 2°55.573 13.2484 3.674514 25.766586 -2.458615
2012-03-09 08:27:54 51°14.007 2°55.582 13.2786 3.671511 25.74324 -2.458615
2012-03-09 08:27:59 51°14.008 2°55.588 13.2696 3.664469 25.688045 -2.458615
2012-03-09 08:28:04 51°14.009 2°55.594 13.2805 3.654631 25.612076 -2.458615
2012-03-09 08:28:09 51°14.01 2°55.598 13.2851 3.644689 25.535332 -2.458615
2012-03-09 08:28:14 51°14.011 2°55.6 13.2871 3.627188 25.399492 -2.458615
2012-03-09 08:28:19 51°14.011 2°55.599 13.2861 3.627188 25.399492 -2.458615
2012-03-09 08:28:24 51°14.013 2°55.595 13.2812 3.63713 25.476643 -2.458615
2012-03-09 08:28:29 51°14.015 2°55.59 13.2661 3.642514 25.518447 -2.458615
2012-03-09 08:28:34 51°14.018 2°55.583 13.2669 3.638476 25.487554 -2.458615
2012-03-09 08:28:39 51°14.021 2°55.573 13.1133 3.640858 25.506968 -2.458615
2012-03-09 08:28:44 51°14.026 2°55.563 13.0912 3.645 25.539593 -2.458615
2012-03-09 08:28:48 51°14.03 2°55.554 13.0388 3.645 25.539593 -2.458615
2012-03-09 08:28:53 51°14.036 2°55.542 12.9564 3.649971 25.578659 -2.458615
2012-03-09 08:28:59 51°14.043 2°55.526 12.9483 3.649039 25.57142 -2.458615
2012-03-09 08:29:04 51°14.05 2°55.512 12.8767 3.658462 25.645091 -2.458615
2012-03-09 08:29:08 51°14.056 2°55.502 12.8403 3.658566 25.646359 -2.458615
2012-03-09 08:29:13 51°14.064 2°55.489 12.7564 3.666022 25.703838 -2.458615
2012-03-09 08:29:18 51°14.073 2°55.478 12.8523 3.666022 25.703838 -2.458615
2012-03-09 08:29:23 51°14.082 2°55.466 12.9346 3.667161 25.713158 -2.458615
2012-03-09 08:29:28 51°14.091 2°55.456 12.9358 3.66799 25.719597 -2.458615
2012-03-09 08:29:32 51°14.099 2°55.448 13.0013 3.666851 25.711208 -2.458615
2012-03-09 08:29:37 51°14.109 2°55.439 13.0811 3.665815 25.703624 -2.458615
2012-03-09 08:29:42 51°14.12 2°55.431 13.0701 3.662191 25.675919 -2.458615
2012-03-09 08:29:47 51°14.129 2°55.421 13.0355 3.662191 25.675919 -2.458615
2012-03-09 08:29:52 51°14.139 2°55.411 13.0742 3.664572 25.694896 -2.458615
2012-03-09 08:29:57 51°14.148 2°55.401 13.1067 3.664572 25.694896 -2.458615
2012-03-09 08:30:03 51°14.159 2°55.389 13.0419 3.666747 25.712265 -2.458615
2012-03-09 08:30:08 51°14.168 2°55.379 13.08 3.662398 25.678923 -2.458615
2012-03-09 08:30:13 51°14.178 2°55.37 13.0689 3.667265 25.716756 -2.458615
2012-03-09 08:30:18 51°14.188 2°55.361 13.0943 3.667265 25.716756 -2.458615
2012-03-09 08:30:23 51°14.198 2°55.352 13.1 3.663226 25.685827 -2.458615
2012-03-09 08:30:28 51°14.208 2°55.342 13.1002 3.665194 25.701121 -2.458615
2012-03-09 08:30:32 51°14.216 2°55.335 13.05 3.667576 25.720103 -2.458615
2012-03-09 08:30:38 51°14.227 2°55.323 13.0762 3.66333 25.687097 -2.458615
2012-03-09 08:30:44 51°14.239 2°55.312 13.116 3.669751 25.737476 -2.458615
2012-03-09 08:30:49 51°14.249 2°55.303 13.1063 3.669751 25.737476 -2.458615
2012-03-09 08:30:54 51°14.259 2°55.295 13.1333 3.666851 25.714933 -2.458615
2012-03-09 08:30:59 51°14.269 2°55.286 13.0745 3.663019 25.685613 -2.458615
2012-03-09 08:31:04 51°14.278 2°55.277 13.1299 3.666644 25.714254 -2.458615
2012-03-09 08:31:09 51°14.288 2°55.268 13.0674 3.673168 25.765448 -2.458615
2012-03-09 08:31:13 51°14.296 2°55.261 13.0837 3.656288 25.634227 -2.458615
2012-03-09 08:31:19 51°14.307 2°55.25 13.0913 3.656288 25.634227 -2.458615
2012-03-09 08:31:24 51°14.317 2°55.242 13.1284 3.669854 25.740146 -2.458615
2012-03-09 08:31:29 51°14.327 2°55.233 13.1147 3.66043 25.667349 -2.458615
2012-03-09 08:31:33 51°14.334 2°55.225 13.0555 3.666229 25.71243 -2.458615
2012-03-09 08:31:39 51°14.346 2°55.214 13.0933 3.661673 25.677474 -2.458615
2012-03-09 08:31:44 51°14.355 2°55.205 13.0924 3.667886 25.726244 -2.458615
2012-03-09 08:31:48 51°14.363 2°55.197 13.1123 3.667886 25.726244 -2.458615
2012-03-09 08:31:53 51°14.372 2°55.189 13.0895 3.662191 25.681964 -2.458615
2012-03-09 08:31:58 51°14.382 2°55.18 13.1171 3.668922 25.734763 -2.458615
2012-03-09 08:32:03 51°14.391 2°55.171 13.1205 3.654838 25.625281 -2.458615
2012-03-09 08:32:08 51°14.401 2°55.161 13.1062 3.666644 25.717048 -2.458615
2012-03-09 08:32:13 51°14.411 2°55.153 13.094 3.663744 25.69497 -2.458615
2012-03-09 08:32:18 51°14.421 2°55.144 13.0945 3.663744 25.69497 -2.458615
2012-03-09 08:32:23 51°14.43 2°55.136 13.1229 3.6712 25.752946 -2.458615
2012-03-09 08:32:28 51°14.44 2°55.128 13.1324 3.660844 25.672894 -2.458615
2012-03-09 08:32:32 51°14.449 2°55.122 13.1627 3.660223 25.668064 -2.458615
2012-03-09 08:32:38 51°14.461 2°55.112 13.1218 3.661673 25.679799 -2.458615
2012-03-09 08:32:43 51°14.47 2°55.103 13.1389 3.661569 25.679459 -2.458615
2012-03-09 08:32:48 51°14.48 2°55.094 13.0851 3.661569 25.679459 -2.458615
2012-03-09 08:32:52 51°14.488 2°55.086 13.0888 3.648832 25.580462 -2.458615
2012-03-09 08:32:57 51°14.499 2°55.076 13.0661 3.656288 25.638869 -2.458615
2012-03-09 08:33:03 51°14.512 2°55.064 13.046 3.652456 25.609091 -2.458615
2012-03-09 08:33:08 51°14.523 2°55.053 13.0919 3.65722 25.646578 -2.458615
2012-03-09 08:33:12 51°14.532 2°55.044 13.0909 3.64179 25.52668 -2.458615
2012-03-09 08:33:17 51°14.542 2°55.032 12.9776 3.64179 25.52668 -2.458615
2012-03-09 08:33:22 51°14.553 2°55.019 13.0735 3.649557 25.587485 -2.458615
2012-03-09 08:33:27 51°14.565 2°55.007 13.0881 3.66188 25.68327 -2.458615
2012-03-09 08:33:32 51°14.576 2°54.994 13.1299 3.65111 25.60002 -2.458615
2012-03-09 08:33:36 51°14.585 2°54.983 13.0353 3.653388 25.61819 -2.458615
2012-03-09 08:33:41 51°14.597 2°54.969 12.9937 3.648728 25.581974 -2.458615
2012-03-09 08:33:46 51°14.608 2°54.955 13.0053 3.670993 25.755067 -2.458615
2012-03-09 08:33:51 51°14.62 2°54.942 13.0598 3.670993 25.755067 -2.458615
2012-03-09 08:33:56 51°14.632 2°54.928 12.9967 3.653595 25.620263 -2.458615
2012-03-09 08:34:00 51°14.641 2°54.918 12.9651 3.648107 25.577609 -2.458615
2012-03-09 08:34:05 51°14.653 2°54.904 12.9883 3.672961 25.770838 -2.458615
2012-03-09 08:34:10 51°14.665 2°54.891 13.0506 3.658359 25.657757 -2.458615
2012-03-09 08:34:15 51°14.677 2°54.879 13.0346 3.658359 25.657757 -2.458615
2012-03-09 08:34:20 51°14.689 2°54.866 13.0117 3.651006 25.60107 -2.458615
2012-03-09 08:34:25 51°14.702 2°54.854 13.0188 3.656909 25.646951 -2.458615
2012-03-09 08:34:30 51°14.715 2°54.842 12.9732 3.656288 25.642585 -2.458615
2012-03-09 08:34:35 51°14.727 2°54.829 12.901 3.663641 25.700216 -2.458615
2012-03-09 08:34:40 51°14.74 2°54.818 12.9049 3.658048 25.656736 -2.458615
2012-03-09 08:34:45 51°14.753 2°54.807 12.9962 3.658048 25.656736 -2.458615
2012-03-09 08:34:50 51°14.766 2°54.797 13.0282 3.670061 25.75015 -2.458615
2012-03-09 08:34:56 51°14.782 2°54.785 12.9813 3.657013 25.64915 -2.458615
2012-03-09 08:35:00 51°14.793 2°54.778 13.0393 3.653699 25.623389 -2.458615
2012-03-09 08:35:05 51°14.807 2°54.77 12.8692 3.659498 25.669402 -2.458615
2012-03-09 08:35:10 51°14.821 2°54.761 12.8765 3.651524 25.606949 -2.458615
2012-03-09 08:35:15 51°14.835 2°54.754 12.9917 3.651524 25.606949 -2.458615
2012-03-09 08:35:20 51°14.849 2°54.748 12.9606 3.678761 25.819228 -2.458615
2012-03-09 08:35:25 51°14.864 2°54.743 12.9492 3.651835 25.609828 -2.458615
2012-03-09 08:35:30 51°14.878 2°54.739 12.9475 3.662398 25.692414 -2.458615
2012-03-09 08:35:35 51°14.893 2°54.735 12.943 3.653595 25.624441 -2.458615
2012-03-09 08:35:40 51°14.908 2°54.732 13.015 3.655356 25.638591 -2.458615
2012-03-09 08:35:45 51°14.923 2°54.729 12.8694 3.645414 25.561782 -2.458615
2012-03-09 08:35:50 51°14.938 2°54.725 12.9071 3.645414 25.561782 -2.458615
2012-03-09 08:35:55 51°14.953 2°54.722 12.9688 3.658877 25.666896 -2.458615
2012-03-09 08:36:00 51°14.968 2°54.72 13.0014 3.660327 25.67817 -2.458615
2012-03-09 08:36:05 51°14.983 2°54.717 12.8911 3.640547 25.524886 -2.458615
2012-03-09 08:36:10 51°14.999 2°54.715 12.8624 3.64966 25.595708 -2.458615
2012-03-09 08:36:15 51°15.014 2°54.712 12.9418 3.64966 25.595708 -2.458615
2012-03-09 08:36:20 51°15.029 2°54.711 12.9774 3.661673 25.689105 -2.458615
2012-03-09 08:36:25 51°15.044 2°54.709 12.9365 3.649557 25.594903 -2.458615
2012-03-09 08:36:30 51°15.059 2°54.706 12.9403 3.656702 25.650917 -2.458615
2012-03-09 08:36:36 51°15.077 2°54.703 12.8899 3.653078 25.623201 -2.458615
2012-03-09 08:36:40 51°15.088 2°54.701 12.9251 3.644068 25.553172 -2.458615
2012-03-09 08:36:45 51°15.103 2°54.7 12.9765 3.644068 25.553172 -2.458615
2012-03-09 08:36:50 51°15.118 2°54.698 13.0009 3.667265 25.733531 -2.458615
2012-03-09 08:36:56 51°15.136 2°54.697 12.9727 3.645829 25.567317 -2.458615
2012-03-09 08:37:00 51°15.147 2°54.695 12.9843 3.663123 25.702243 -2.458615
2012-03-09 08:37:05 51°15.162 2°54.692 12.9985 3.642411 25.541221 -2.458615
2012-03-09 08:37:10 51°15.177 2°54.689 13.0037 3.639201 25.5172 -2.458615
2012-03-09 08:37:15 51°15.192 2°54.685 12.9992 3.639201 25.5172 -2.458615
2012-03-09 08:37:20 51°15.206 2°54.679 12.9954 3.655045 25.640357 -2.458615
2012-03-09 08:37:25 51°15.221 2°54.672 12.9493 3.633816 25.475823 -2.458615
2012-03-09 08:37:30 51°15.236 2°54.666 12.9468 3.64935 25.596539 -2.458615
2012-03-09 08:37:35 51°15.25 2°54.658 12.8553 3.657634 25.661418 -2.458615
2012-03-09 08:37:40 51°15.264 2°54.651 12.8867 3.645932 25.569975 -2.458615
2012-03-09 08:37:45 51°15.279 2°54.644 12.8516 3.645932 25.569975 -2.458615
2012-03-09 08:37:50 51°15.294 2°54.637 12.9047 3.661777 25.693169 -2.458615
2012-03-09 08:37:55 51°15.308 2°54.63 12.9738 3.693881 25.943028 -2.458615
2012-03-09 08:38:00 51°15.322 2°54.625 12.9547 3.676793 25.810464 -2.458615
2012-03-09 08:38:05 51°15.335 2°54.62 12.9585 3.679279 25.830277 -2.458615
2012-03-09 08:38:10 51°15.347 2°54.615 12.992 3.682593 25.856073 -2.458615
2012-03-09 08:38:15 51°15.359 2°54.612 13.0035 3.682593 25.856073 -2.458615
2012-03-09 08:38:20 51°15.37 2°54.609 12.9908 3.663848 25.710676 -2.458615
2012-03-09 08:38:25 51°15.381 2°54.606 13.026 3.670994 25.766736 -2.458615
2012-03-09 08:38:30 51°15.391 2°54.604 13.01 3.677932 25.821202 -2.458615
2012-03-09 08:38:35 51°15.401 2°54.601 13.023 3.665816 25.727382 -2.458615
2012-03-09 08:38:40 51°15.41 2°54.599 13.0623 3.678036 25.822945 -2.458615
2012-03-09 08:38:45 51°15.419 2°54.596 13.0501 3.678036 25.822945 -2.458615
2012-03-09 08:38:50 51°15.428 2°54.594 13.0483 3.665091 25.722675 -2.458615
2012-03-09 08:38:56 51°15.438 2°54.59 13.0569 3.663952 25.714278 -2.458615
2012-03-09 08:39:00 51°15.444 2°54.587 13.0343 3.662398 25.70266 -2.458615
2012-03-09 08:39:05 51°15.452 2°54.584 13.024 3.660327 25.686548 -2.458615
2012-03-09 08:39:10 51°15.459 2°54.58 13.0207 3.649246 25.600373 -2.458615
2012-03-09 08:39:16 51°15.468 2°54.575 13.0236 3.657531 25.664799 -2.458615
2012-03-09 08:39:20 51°15.474 2°54.571 13.0398 3.657531 25.664799 -2.458615
2012-03-09 08:39:25 51°15.481 2°54.566 13.0395 3.66302 25.707493 -2.458615
2012-03-09 08:39:30 51°15.488 2°54.562 13.0455 3.655253 25.64708 -2.458615
2012-03-09 08:39:35 51°15.494 2°54.557 13.0306 3.671304 25.772423 -2.458615
2012-03-09 08:39:40 51°15.5 2°54.551 13.0528 3.658049 25.669292 -2.458615
2012-03-09 08:39:45 51°15.507 2°54.546 13.0385 3.658049 25.669292 -2.458615
2012-03-09 08:39:50 51°15.513 2°54.54 13.0401 3.658981 25.677007 -2.458615
2012-03-09 08:39:55 51°15.519 2°54.534 13.0306 3.660431 25.688285 -2.458615
2012-03-09 08:40:00 51°15.525 2°54.528 13.0181 3.659395 25.680694 -2.458615
2012-03-09 08:40:05 51°15.531 2°54.523 13.0197 3.652353 25.625924 -2.458615
2012-03-09 08:40:10 51°15.536 2°54.516 13.0294 3.657945 25.669882 -2.458615
2012-03-09 08:40:15 51°15.542 2°54.511 13.0441 3.657945 25.669882 -2.458615
2012-03-09 08:40:20 51°15.548 2°54.505 13.0398 3.651939 25.623632 -2.458615
2012-03-09 08:40:25 51°15.554 2°54.499 13.0305 3.651835 25.622826 -2.458615
2012-03-09 08:40:30 51°15.56 2°54.493 13.0039 3.665194 25.727211 -2.458615
2012-03-09 08:40:35 51°15.566 2°54.488 13.0234 3.656495 25.659535 -2.458615
2012-03-09 08:40:40 51°15.572 2°54.482 13.0313 3.661777 25.701087 -2.458615
2012-03-09 08:40:45 51°15.578 2°54.476 13.0372 3.661777 25.701087 -2.458615
2012-03-09 08:40:51 51°15.585 2°54.469 13.0343 3.673894 25.795846 -2.458615
2012-03-09 08:40:55 51°15.589 2°54.464 13.0253 3.66478 25.725387 -2.458615
2012-03-09 08:41:00 51°15.595 2°54.458 12.9663 3.655667 25.654487 -2.458615
2012-03-09 08:41:05 51°15.601 2°54.453 13.0053 3.645104 25.572804 -2.458615
2012-03-09 08:41:10 51°15.606 2°54.446 12.999 3.648936 25.602599 -2.458615
2012-03-09 08:41:15 51°15.612 2°54.441 13.0183 3.648936 25.602599 -2.458615
2012-03-09 08:41:20 51°15.619 2°54.435 13.0142 3.66333 25.715038 -2.458615
2012-03-09 08:41:25 51°15.625 2°54.429 13.0117 3.662295 25.707446 -2.458615
2012-03-09 08:41:30 51°15.631 2°54.424 13.029 3.66157 25.701805 -2.458615
2012-03-09 08:41:35 51°15.637 2°54.418 13.0318 3.661984 25.705495 -2.458615
2012-03-09 08:41:40 51°15.643 2°54.413 12.9975 3.670165 25.769164 -2.458615
2012-03-09 08:41:45 51°15.65 2°54.408 12.988 3.670165 25.769164 -2.458615
2012-03-09 08:41:50 51°15.656 2°54.402 13.0232 3.648625 25.602039 -2.458615
2012-03-09 08:41:55 51°15.663 2°54.396 13.005 3.653182 25.637479 -2.458615
2012-03-09 08:42:00 51°15.669 2°54.391 13.0018 3.660327 25.693534 -2.458615
2012-03-09 08:42:05 51°15.675 2°54.385 12.9746 3.664159 25.723817 -2.458615
2012-03-09 08:42:10 51°15.681 2°54.379 12.9686 3.648832 25.604579 -2.458615
2012-03-09 08:42:15 51°15.688 2°54.374 13.0053 3.648832 25.604579 -2.458615
2012-03-09 08:42:20 51°15.694 2°54.368 13.0007 3.654217 25.646929 -2.458615
2012-03-09 08:42:25 51°15.7 2°54.362 13.0047 3.655253 25.654985 -2.458615
2012-03-09 08:42:30 51°15.707 2°54.357 12.9949 3.662916 25.715078 -2.458615
2012-03-09 08:42:35 51°15.713 2°54.351 13.003 3.659809 25.690903 -2.458615
2012-03-09 08:42:40 51°15.72 2°54.346 13.0016 3.657013 25.669613 -2.458615
2012-03-09 08:42:45 51°15.726 2°54.34 12.9958 3.657013 25.669613 -2.458615
2012-03-09 08:42:50 51°15.733 2°54.335 12.9805 3.660327 25.695864 -2.458615
2012-03-09 08:42:55 51°15.74 2°54.33 12.9774 3.668094 25.756779 -2.458615
2012-03-09 08:43:00 51°15.746 2°54.325 12.9903 3.663227 25.719362 -2.458615
2012-03-09 08:43:05 51°15.753 2°54.32 13.0082 3.657324 25.673427 -2.458615
2012-03-09 08:43:10 51°15.759 2°54.315 13.0288 3.668198 25.75852 -2.458615
2012-03-09 08:43:15 51°15.766 2°54.31 13.004 3.668198 25.75852 -2.458615
2012-03-09 08:43:20 51°15.773 2°54.305 13.0022 3.651939 25.63246 -2.458615
2012-03-09 08:43:25 51°15.78 2°54.3 13.0122 3.65722 25.674018 -2.458615
2012-03-09 08:43:30 51°15.786 2°54.295 12.9915 3.66157 25.708331 -2.458615
2012-03-09 08:43:36 51°15.794 2°54.289 12.9783 3.656806 25.67126 -2.458615
2012-03-09 08:43:40 51°15.799 2°54.285 13.0034 3.652871 25.641106 -2.458615
2012-03-09 08:43:45 51°15.806 2°54.28 13.0143 3.652871 25.641106 -2.458615
2012-03-09 08:43:50 51°15.813 2°54.274 13.0119 3.659602 25.69395 -2.458615
2012-03-09 08:43:55 51°15.819 2°54.269 13.0175 3.654631 25.655269 -2.458615
2012-03-09 08:44:00 51°15.826 2°54.264 13.0054 3.658049 25.682327 -2.458615
2012-03-09 08:44:05 51°15.832 2°54.258 13.0242 3.663952 25.72827 -2.458615
2012-03-09 08:44:10 51°15.839 2°54.253 13.0247 3.66333 25.7239 -2.458615
2012-03-09 08:44:15 51°15.846 2°54.248 13.0079 3.66333 25.7239 -2.458615
2012-03-09 08:44:20 51°15.852 2°54.241 13.0101 3.657428 25.678889 -2.458615
2012-03-09 08:44:25 51°15.858 2°54.235 13.0013 3.65867 25.688561 -2.458615
2012-03-09 08:44:30 51°15.865 2°54.229 13.0042 3.661674 25.712402 -2.458615
2012-03-09 08:44:35 51°15.871 2°54.223 12.9858 3.648211 25.608104 -2.458615
2012-03-09 08:44:40 51°15.878 2°54.217 13.0135 3.652975 25.645168 -2.458615
2012-03-09 08:44:45 51°15.884 2°54.211 12.9729 3.652975 25.645168 -2.458615
2012-03-09 08:44:50 51°15.89 2°54.204 13.0063 3.646761 25.59729 -2.458615
2012-03-09 08:44:55 51°15.897 2°54.197 13.0232 3.652043 25.638846 -2.458615
2012-03-09 08:45:00 51°15.903 2°54.19 13.03 3.650593 25.627565 -2.458615
2012-03-09 08:45:04 51°15.908 2°54.185 13.0335 3.658153 25.686861 -2.458615
2012-03-09 08:45:10 51°15.915 2°54.177 13.02 3.658774 25.692163 -2.458615
2012-03-09 08:45:15 51°15.922 2°54.17 13.0205 3.658774 25.692163 -2.458615
2012-03-09 08:45:20 51°15.928 2°54.163 13.0325 3.664055 25.733744 -2.458615
2012-03-09 08:45:25 51°15.934 2°54.155 13.0099 3.658774 25.693095 -2.458615
2012-03-09 08:45:30 51°15.94 2°54.148 12.9996 3.662606 25.72339 -2.458615
2012-03-09 08:45:36 51°15.947 2°54.139 12.9998 3.665712 25.747578 -2.458615
2012-03-09 08:45:40 51°15.951 2°54.133 12.9722 3.653078 25.649696 -2.458615
2012-03-09 08:45:45 51°15.958 2°54.125 13.0185 3.653078 25.649696 -2.458615
2012-03-09 08:45:50 51°15.963 2°54.117 13.0189 3.659292 25.698524 -2.458615
2012-03-09 08:45:56 51°15.97 2°54.108 13.0128 3.659602 25.701409 -2.458615
2012-03-09 08:46:00 51°15.975 2°54.102 13.0097 3.652975 25.650286 -2.458615
2012-03-09 08:46:05 51°15.981 2°54.094 12.9953 3.649868 25.626108 -2.458615
2012-03-09 08:46:10 51°15.987 2°54.087 12.9958 3.653803 25.657199 -2.458615
2012-03-09 08:46:15 51°15.993 2°54.079 13.011 3.653803 25.657199 -2.458615
2012-03-09 08:46:20 51°15.999 2°54.071 12.9668 3.650489 25.631874 -2.458615
2012-03-09 08:46:25 51°16.005 2°54.064 13.006 3.663227 25.731495 -2.458615
2012-03-09 08:46:30 51°16.011 2°54.057 13.0103 3.657635 25.688423 -2.458615
2012-03-09 08:46:36 51°16.019 2°54.048 13.0208 3.664366 25.7413 -2.458615
2012-03-09 08:46:40 51°16.024 2°54.042 12.9832 3.653389 25.655837 -2.458615
2012-03-09 08:46:45 51°16.03 2°54.035 13.0236 3.653389 25.655837 -2.458615
2012-03-09 08:46:50 51°16.036 2°54.027 12.9829 3.648625 25.619227 -2.458615
2012-03-09 08:46:56 51°16.043 2°54.018 12.9565 3.652043 25.64629 -2.458615
2012-03-09 08:47:00 51°16.047 2°54.012 12.9771 3.670062 25.787063 -2.458615
2012-03-09 08:47:05 51°16.054 2°54.005 12.9723 3.659603 25.706073 -2.458615
2012-03-09 08:47:11 51°16.061 2°53.997 12.9827 3.650282 25.633983 -2.458615
2012-03-09 08:47:16 51°16.067 2°53.99 12.9712 3.650282 25.633983 -2.458615
2012-03-09 08:47:20 51°16.072 2°53.984 12.9689 3.654528 25.667033 -2.458615
2012-03-09 08:47:25 51°16.078 2°53.977 12.9495 3.667473 25.7683 -2.458615
2012-03-09 08:47:30 51°16.084 2°53.97 12.9825 3.657842 25.693765 -2.458615
2012-03-09 08:47:35 51°16.09 2°53.963 12.9802 3.644587 25.590585 -2.458615
2012-03-09 08:47:40 51°16.097 2°53.956 12.9915 3.652561 25.653113 -2.458615
2012-03-09 08:47:45 51°16.103 2°53.951 12.9801 3.652561 25.653113 -2.458615
2012-03-09 08:47:50 51°16.11 2°53.945 12.9759 3.651111 25.642293 -2.458615
2012-03-09 08:47:56 51°16.117 2°53.937 12.9995 3.663641 25.740326 -2.458615
2012-03-09 08:48:00 51°16.122 2°53.932 12.9944 3.64904 25.627101 -2.458615
2012-03-09 08:48:04 51°16.127 2°53.927 12.9988 3.656392 25.684808 -2.458615
2012-03-09 08:48:10 51°16.134 2°53.92 13.0088 3.657324 25.692531 -2.458615
2012-03-09 08:48:16 51°16.142 2°53.912 13.0114 3.658567 25.702675 -2.458615
2012-03-09 08:48:20 51°16.146 2°53.907 12.9931 3.658567 25.702675 -2.458615
2012-03-09 08:48:25 51°16.153 2°53.901 12.996 3.659085 25.707174 -2.458615
2012-03-09 08:48:30 51°16.159 2°53.895 13.0088 3.649661 25.633799 -2.458615
2012-03-09 08:48:35 51°16.165 2°53.888 13.0001 3.650282 25.639101 -2.458615
2012-03-09 08:48:40 51°16.171 2°53.882 13.0088 3.657221 25.693591 -2.458615
2012-03-09 08:48:45 51°16.177 2°53.876 13.0075 3.657221 25.693591 -2.458615
2012-03-09 08:48:50 51°16.184 2°53.87 13.0091 3.650282 25.640032 -2.458615
2012-03-09 08:48:55 51°16.19 2°53.864 13.0066 3.651214 25.647288 -2.458615
2012-03-09 08:49:00 51°16.196 2°53.857 13.0008 3.654839 25.675975 -2.458615
2012-03-09 08:49:05 51°16.203 2°53.851 12.991 3.651111 25.647413 -2.458615
2012-03-09 08:49:10 51°16.209 2°53.844 12.9828 3.645829 25.606762 -2.458615
2012-03-09 08:49:15 51°16.214 2°53.837 12.982 3.645829 25.606762 -2.458615
2012-03-09 08:49:20 51°16.22 2°53.831 13.0062 3.650904 25.646266 -2.458615
2012-03-09 08:49:25 51°16.226 2°53.824 12.9773 3.646969 25.616095 -2.458615
2012-03-09 08:49:30 51°16.232 2°53.817 12.9973 3.663538 25.745594 -2.458615
2012-03-09 08:49:36 51°16.239 2°53.809 12.9795 3.66592 25.764618 -2.458615
2012-03-09 08:49:40 51°16.244 2°53.804 12.9869 3.651836 25.655386 -2.458615
2012-03-09 08:49:45 51°16.25 2°53.798 12.9628 3.651836 25.655386 -2.458615
2012-03-09 08:49:50 51°16.256 2°53.791 12.9687 3.637441 25.543333 -2.458615
2012-03-09 08:49:55 51°16.262 2°53.784 13.0049 3.653596 25.669561 -2.458615
2012-03-09 08:50:00 51°16.269 2°53.778 12.9984 3.653493 25.669221 -2.458615
2012-03-09 08:50:05 51°16.274 2°53.77 13.0255 3.656185 25.690656 -2.458615
2012-03-09 08:50:10 51°16.28 2°53.764 12.9994 3.651629 25.655637 -2.458615
2012-03-09 08:50:16 51°16.287 2°53.756 13.0095 3.651629 25.655637 -2.458615
2012-03-09 08:50:20 51°16.292 2°53.75 13.0064 3.661053 25.729504 -2.458615
2012-03-09 08:50:24 51°16.296 2°53.744 12.9935 3.657014 25.698509 -2.458615
2012-03-09 08:50:30 51°16.303 2°53.735 13.0013 3.657842 25.704962 -2.458615
2012-03-09 08:50:35 51°16.309 2°53.727 13.023 3.6508 25.650582 -2.458615
2012-03-09 08:50:40 51°16.314 2°53.719 13.0303 3.669027 25.79304 -2.458615
2012-03-09 08:50:45 51°16.32 2°53.711 13.0217 3.669027 25.79304 -2.458615
2012-03-09 08:50:50 51°16.325 2°53.702 13.0188 3.661363 25.733793 -2.458615
2012-03-09 08:50:55 51°16.33 2°53.693 13.012 3.65546 25.688276 -2.458615
2012-03-09 08:51:00 51°16.335 2°53.684 13.0051 3.650386 25.648754 -2.458615
2012-03-09 08:51:05 51°16.34 2°53.675 13.0123 3.650697 25.651639 -2.458615
2012-03-09 08:51:10 51°16.345 2°53.666 13.0233 3.660121 25.725513 -2.458615
2012-03-09 08:51:15 51°16.35 2°53.657 13.0263 3.660121 25.725513 -2.458615
2012-03-09 08:51:20 51°16.355 2°53.647 13.0276 3.657946 25.709037 -2.458615
2012-03-09 08:51:25 51°16.36 2°53.638 13.0272 3.655253 25.688528 -2.458615
2012-03-09 08:51:30 51°16.364 2°53.628 13.0177 3.650283 25.649811 -2.458615
2012-03-09 08:51:35 51°16.369 2°53.618 13.0131 3.648729 25.638179 -2.458615
2012-03-09 08:51:40 51°16.374 2°53.609 13.0096 3.654321 25.682201 -2.458615
2012-03-09 08:51:45 51°16.379 2°53.6 13.0029 3.654321 25.682201 -2.458615
2012-03-09 08:51:50 51°16.383 2°53.589 13.0194 3.654736 25.685894 -2.458615
2012-03-09 08:51:55 51°16.388 2°53.58 13.0103 3.655668 25.693622 -2.458615
2012-03-09 08:52:00 51°16.393 2°53.57 13.015 3.656703 25.702157 -2.458615
2012-03-09 08:52:05 51°16.398 2°53.56 13.0016 3.660017 25.728444 -2.458615
2012-03-09 08:52:10 51°16.403 2°53.55 13.01 3.656807 25.70343 -2.458615
2012-03-09 08:52:15 51°16.408 2°53.541 13.0051 3.656807 25.70343 -2.458615
2012-03-09 08:52:20 51°16.413 2°53.531 12.9894 3.648108 25.636133 -2.458615
2012-03-09 08:52:25 51°16.419 2°53.523 13.0005 3.660742 25.735028 -2.458615
2012-03-09 08:52:30 51°16.424 2°53.514 12.9833 3.660224 25.73146 -2.458615
2012-03-09 08:52:36 51°16.43 2°53.502 13.0317 3.644276 25.607688 -2.458615
2012-03-09 08:52:40 51°16.434 2°53.495 13.0275 3.672755 25.830072 -2.458615
2012-03-09 08:52:45 51°16.44 2°53.487 13.0203 3.672755 25.830072 -2.458615
2012-03-09 08:52:50 51°16.445 2°53.478 13.0246 3.651111 25.662322 -2.458615
2012-03-09 08:52:55 51°16.45 2°53.468 13.0123 3.647072 25.630861 -2.458615
2012-03-09 08:53:00 51°16.456 2°53.46 12.9726 3.668509 25.798375 -2.458615
2012-03-09 08:53:05 51°16.461 2°53.451 13.011 3.649144 25.647926 -2.458615
2012-03-09 08:53:10 51°16.467 2°53.443 13.0046 3.656393 25.704872 -2.458615
2012-03-09 08:53:15 51°16.473 2°53.435 13.0067 3.656393 25.704872 -2.458615
2012-03-09 08:53:20 51°16.479 2°53.427 13.007 3.65981 25.731972 -2.458615
2012-03-09 08:53:25 51°16.484 2°53.419 12.9996 3.657635 25.715491 -2.458615
2012-03-09 08:53:30 51°16.49 2°53.411 13.0105 3.664988 25.773268 -2.458615
2012-03-09 08:53:35 51°16.495 2°53.402 13.012 3.656393 25.70674 -2.458615
2012-03-09 08:53:40 51°16.501 2°53.394 13.028 3.661467 25.746757 -2.458615
2012-03-09 08:53:45 51°16.507 2°53.386 13.0304 3.663124 25.760142 -2.458615
2012-03-09 08:53:50 51°16.512 2°53.378 13.0305 3.663124 25.760142 -2.458615
2012-03-09 08:53:55 51°16.518 2°53.37 13.0085 3.657325 25.715406 -2.458615
2012-03-09 08:54:00 51°16.523 2°53.363 13.0278 3.644069 25.612124 -2.458615
2012-03-09 08:54:05 51°16.529 2°53.355 13.0139 3.651422 25.670339 -2.458615
2012-03-09 08:54:10 51°16.534 2°53.347 13.0138 3.657843 25.720376 -2.458615
2012-03-09 08:54:15 51°16.54 2°53.339 13.0136 3.657843 25.720376 -2.458615
2012-03-09 08:54:20 51°16.546 2°53.332 13.0229 3.654632 25.69629 -2.458615
2012-03-09 08:54:25 51°16.552 2°53.325 13.0314 3.653286 25.685798 -2.458615
2012-03-09 08:54:30 51°16.557 2°53.318 13.0419 3.649247 25.654792 -2.458615
2012-03-09 08:54:36 51°16.564 2°53.308 13.045 3.649454 25.656872 -2.458615
2012-03-09 08:54:40 51°16.569 2°53.302 13.0359 3.659707 25.737244 -2.458615
2012-03-09 08:54:45 51°16.574 2°53.295 13.0385 3.659707 25.737244 -2.458615
2012-03-09 08:54:50 51°16.58 2°53.288 13.0324 3.648212 25.648122 -2.458615
2012-03-09 08:54:56 51°16.587 2°53.279 13.0243 3.6537 25.69136 -2.458615
2012-03-09 08:55:00 51°16.591 2°53.273 13.0367 3.654115 25.695523 -2.458615
2012-03-09 08:55:05 51°16.597 2°53.265 13.0491 3.654529 25.698752 -2.458615
2012-03-09 08:55:10 51°16.603 2°53.258 13.0399 3.659189 25.736014 -2.458615
2012-03-09 08:55:15 51°16.609 2°53.251 13.0458 3.659189 25.736014 -2.458615
2012-03-09 08:55:20 51°16.614 2°53.244 13.0388 3.648212 25.650452 -2.458615
2012-03-09 08:55:25 51°16.619 2°53.235 13.0254 3.646141 25.635245 -2.458615
2012-03-09 08:55:30 51°16.625 2°53.228 13.0252 3.658982 25.735335 -2.458615
2012-03-09 08:55:35 51°16.63 2°53.22 13.0417 3.641481 25.599401 -2.458615
2012-03-09 08:55:40 51°16.636 2°53.213 13.0291 3.64407 25.620504 -2.458615
2012-03-09 08:55:45 51°16.641 2°53.205 13.0488 3.64407 25.620504 -2.458615
2012-03-09 08:55:50 51°16.647 2°53.197 13.0529 3.661882 25.759348 -2.458615
2012-03-09 08:55:55 51°16.652 2°53.189 13.0504 3.656807 25.720251 -2.458615
2012-03-09 08:56:00 51°16.658 2°53.181 13.033 3.648522 25.656604 -2.458615
2012-03-09 08:56:05 51°16.663 2°53.172 13.0352 3.645934 25.636427 -2.458615
2012-03-09 08:56:10 51°16.668 2°53.164 13.0321 3.647487 25.648999 -2.458615
2012-03-09 08:56:15 51°16.673 2°53.155 13.0287 3.647487 25.648999 -2.458615
2012-03-09 08:56:20 51°16.677 2°53.147 13.0301 3.649351 25.663995 -2.458615
2012-03-09 08:56:25 51°16.683 2°53.138 13.0391 3.646555 25.642668 -2.458615
2012-03-09 08:56:30 51°16.688 2°53.13 13.0091 3.661571 25.760204 -2.458615
2012-03-09 08:56:36 51°16.694 2°53.12 13.0224 3.664885 25.786519 -2.458615
2012-03-09 08:56:40 51°16.698 2°53.114 13.0356 3.655772 25.715917 -2.458615
2012-03-09 08:56:45 51°16.703 2°53.106 13.0397 3.655772 25.715917 -2.458615
2012-03-09 08:56:50 51°16.709 2°53.097 13.0414 3.65049 25.674741 -2.458615
2012-03-09 08:56:56 51°16.715 2°53.088 13.0293 3.642723 25.61467 -2.458615
2012-03-09 08:57:00 51°16.719 2°53.081 13.0394 3.654218 25.705208 -2.458615
2012-03-09 08:57:05 51°16.725 2°53.073 13.0346 3.65018 25.674186 -2.458615
2012-03-09 08:57:10 51°16.73 2°53.066 13.0345 3.651215 25.682727 -2.458615
2012-03-09 08:57:15 51°16.736 2°53.058 13.0152 3.643655 25.624263 -2.458615
2012-03-09 08:57:20 51°16.741 2°53.05 12.9951 3.643655 25.624263 -2.458615
2012-03-09 08:57:25 51°16.746 2°53.042 13.0453 3.661053 25.760381 -2.458615
2012-03-09 08:57:30 51°16.752 2°53.035 13.0387 3.649144 25.66798 -2.458615
2012-03-09 08:57:35 51°16.758 2°53.028 13.056 3.664056 25.784745 -2.458615
2012-03-09 08:57:40 51°16.763 2°53.02 13.0437 3.66271 25.774712 -2.458615
2012-03-09 08:57:45 51°16.769 2°53.013 13.0489 3.66271 25.774712 -2.458615
2012-03-09 08:57:50 51°16.774 2°53.006 13.042 3.646141 25.645967 -2.458615
2012-03-09 08:57:55 51°16.779 2°52.998 13.0426 3.648108 25.661773 -2.458615
2012-03-09 08:58:00 51°16.785 2°52.99 13.0001 3.65629 25.726035 -2.458615
2012-03-09 08:58:05 51°16.79 2°52.983 13.025 3.641584 25.611847 -2.458615
2012-03-09 08:58:10 51°16.796 2°52.976 12.9793 3.635992 25.568729 -2.458615
2012-03-09 08:58:15 51°16.802 2°52.969 13.0091 3.635992 25.568729 -2.458615
2012-03-09 08:58:20 51°16.807 2°52.962 13.046 3.645623 25.644263 -2.458615
2012-03-09 08:58:25 51°16.813 2°52.955 13.0112 3.64086 25.607594 -2.458615
2012-03-09 08:58:30 51°16.818 2°52.947 13.0342 3.656186 25.727567 -2.458615
2012-03-09 08:58:35 51°16.824 2°52.941 13.0456 3.648005 25.664233 -2.458615
2012-03-09 08:58:40 51°16.83 2°52.934 13.0431 3.669027 25.828694 -2.458615
2012-03-09 08:58:45 51°16.835 2°52.927 13.0501 3.669027 25.828694 -2.458615
2012-03-09 08:58:50 51°16.841 2°52.92 13.0399 3.655875 25.726548 -2.458615
2012-03-09 08:58:55 51°16.846 2°52.913 13.0277 3.641895 25.617996 -2.458615
2012-03-09 08:59:00 51°16.852 2°52.906 13.0305 3.651319 25.691944 -2.458615
2012-03-09 08:59:05 51°16.858 2°52.899 13.0287 3.639203 25.597938 -2.458615
2012-03-09 08:59:10 51°16.863 2°52.893 13.0069 3.645002 25.643616 -2.458615
2012-03-09 08:59:16 51°16.87 2°52.885 13.0246 3.645002 25.643616 -2.458615
2012-03-09 08:59:20 51°16.875 2°52.88 13.0284 3.646555 25.656195 -2.458615
2012-03-09 08:59:25 51°16.88 2°52.873 13.0358 3.648212 25.669584 -2.458615
2012-03-09 08:59:30 51°16.886 2°52.866 13.0309 3.651526 25.695896 -2.458615
2012-03-09 08:59:35 51°16.892 2°52.86 13.0496 3.659604 25.759379 -2.458615
2012-03-09 08:59:40 51°16.897 2°52.853 13.0102 3.65049 25.689221 -2.458615
2012-03-09 08:59:45 51°16.903 2°52.847 13.0164 3.65049 25.689221 -2.458615
2012-03-09 08:59:50 51°16.909 2°52.841 12.9986 3.631126 25.538234 -2.458615
2012-03-09 08:59:55 51°16.914 2°52.833 13.0229 3.648212 25.671919 -2.458615
2012-03-09 09:00:00 51°16.919 2°52.826 13.0292 3.641999 25.62393 -2.458615
2012-03-09 09:00:05 51°16.924 2°52.818 13.0305 3.648834 25.677699 -2.458615
2012-03-09 09:00:10 51°16.929 2°52.811 13.0448 3.654011 25.718558 -2.458615
2012-03-09 09:00:15 51°16.935 2°52.804 13.0434 3.654011 25.718558 -2.458615
2012-03-09 09:00:20 51°16.94 2°52.797 13.0214 3.639721 25.607564 -2.458615
2012-03-09 09:00:25 51°16.945 2°52.789 13.0038 3.646762 25.662946 -2.458615
2012-03-09 09:00:30 51°16.95 2°52.782 13.0284 3.663125 25.791077 -2.458615
2012-03-09 09:00:35 51°16.956 2°52.775 12.9971 3.653804 25.718815 -2.458615
2012-03-09 09:00:40 51°16.961 2°52.767 13.0428 3.652976 25.712819 -2.458615
2012-03-09 09:00:45 51°16.966 2°52.76 13.0018 3.652976 25.712819 -2.458615
2012-03-09 09:00:50 51°16.971 2°52.753 13.0082 3.640653 25.617162 -2.458615
2012-03-09 09:00:56 51°16.978 2°52.745 13.0227 3.645002 25.65155 -2.458615
2012-03-09 09:01:00 51°16.982 2°52.739 13.0285 3.648109 25.67625 -2.458615
2012-03-09 09:01:05 51°16.987 2°52.731 13.0212 3.650801 25.697723 -2.458615
2012-03-09 09:01:10 51°16.992 2°52.723 13.0399 3.654736 25.728896 -2.458615
2012-03-09 09:01:16 51°16.998 2°52.715 13.0398 3.654736 25.728896 -2.458615
2012-03-09 09:01:20 51°17.002 2°52.709 13.0207 3.66416 25.802917 -2.458615
2012-03-09 09:01:25 51°17.007 2°52.701 13.0191 3.656393 25.743232 -2.458615
2012-03-09 09:01:30 51°17.013 2°52.694 13.0292 3.633197 25.562748 -2.458615
2012-03-09 09:01:35 51°17.018 2°52.686 12.9995 3.635164 25.578555 -2.458615
2012-03-09 09:01:40 51°17.023 2°52.679 13.0193 3.634336 25.572561 -2.458615
2012-03-09 09:01:45 51°17.028 2°52.672 12.9949 3.634336 25.572561 -2.458615
2012-03-09 09:01:50 51°17.033 2°52.664 13.0183 3.654736 25.732174 -2.458615
2012-03-09 09:01:55 51°17.037 2°52.656 13.017 3.646348 25.667189 -2.458615
2012-03-09 09:02:00 51°17.043 2°52.649 13.0241 3.644795 25.655537 -2.458615
2012-03-09 09:02:05 51°17.049 2°52.643 13.0317 3.647177 25.674587 -2.458615
2012-03-09 09:02:10 51°17.054 2°52.637 13.0145 3.645416 25.661319 -2.458615
2012-03-09 09:02:15 51°17.06 2°52.63 13.0188 3.645416 25.661319 -2.458615
2012-03-09 09:02:20 51°17.065 2°52.623 13.0295 3.657636 25.75715 -2.458615
2012-03-09 09:02:25 51°17.07 2°52.616 13.02 3.646245 25.669184 -2.458615
2012-03-09 09:02:30 51°17.076 2°52.61 13.0306 3.651216 25.708441 -2.458615
2012-03-09 09:02:35 51°17.081 2°52.603 13.0024 3.663332 25.803495 -2.458615
2012-03-09 09:02:40 51°17.086 2°52.597 12.9943 3.642931 25.64473 -2.458615
2012-03-09 09:02:45 51°17.092 2°52.59 12.9831 3.640446 25.625807 -2.458615
2012-03-09 09:02:50 51°17.097 2°52.584 13.0173 3.640446 25.625807 -2.458615
2012-03-09 09:02:55 51°17.103 2°52.578 13.0243 3.658154 25.764944 -2.458615
2012-03-09 09:03:00 51°17.109 2°52.572 13.0285 3.643656 25.652254 -2.458615
2012-03-09 09:03:05 51°17.114 2°52.566 13.0076 3.652976 25.72546 -2.458615
2012-03-09 09:03:10 51°17.12 2°52.561 13.0173 3.643345 25.650764 -2.458615
2012-03-09 09:03:15 51°17.125 2°52.555 13.0345 3.643345 25.650764 -2.458615
2012-03-09 09:03:20 51°17.131 2°52.549 13.0316 3.654219 25.736098 -2.458615
2012-03-09 09:03:25 51°17.137 2°52.543 13.035 3.63941 25.620993 -2.458615
2012-03-09 09:03:30 51°17.142 2°52.537 13.031 3.643138 25.651016 -2.458615
2012-03-09 09:03:36 51°17.149 2°52.53 13.0112 3.652458 25.724229 -2.458615
2012-03-09 09:03:40 51°17.154 2°52.525 13.0078 3.647177 25.68347 -2.458615
2012-03-09 09:03:45 51°17.16 2°52.519 13.0295 3.647177 25.68347 -2.458615
2012-03-09 09:03:50 51°17.165 2°52.513 13.0142 3.633715 25.57889 -2.458615
2012-03-09 09:03:55 51°17.171 2°52.507 13.0367 3.649973 25.706232 -2.458615
2012-03-09 09:04:00 51°17.177 2°52.5 13.0296 3.63299 25.574633 -2.458615
2012-03-09 09:04:05 51°17.183 2°52.494 13.0309 3.651423 25.718955 -2.458615
2012-03-09 09:04:10 51°17.189 2°52.487 13.0281 3.653287 25.733977 -2.458615
2012-03-09 09:04:15 51°17.194 2°52.481 13.0405 3.653287 25.733977 -2.458615
2012-03-09 09:04:20 51°17.2 2°52.476 13.0329 3.65774 25.769218 -2.458615
2012-03-09 09:04:25 51°17.206 2°52.469 13.0239 3.639203 25.624977 -2.458615
2012-03-09 09:04:30 51°17.212 2°52.463 13.0266 3.640239 25.633525 -2.458615
2012-03-09 09:04:35 51°17.217 2°52.456 13.0349 3.638685 25.62187 -2.458615
2012-03-09 09:04:40 51°17.223 2°52.449 13.0329 3.648523 25.699127 -2.458615
2012-03-09 09:04:45 51°17.229 2°52.443 13.0249 3.648523 25.699127 -2.458615
2012-03-09 09:04:50 51°17.235 2°52.436 13.0324 3.65018 25.712531 -2.458615
2012-03-09 09:04:55 51°17.241 2°52.43 13.0331 3.637546 25.614847 -2.458615
2012-03-09 09:05:00 51°17.246 2°52.423 13.0365 3.636925 25.610465 -2.458615
2012-03-09 09:05:05 51°17.252 2°52.416 13.0365 3.636511 25.607699 -2.458615
2012-03-09 09:05:10 51°17.258 2°52.41 13.0306 3.64086 25.642111 -2.458615
2012-03-09 09:05:16 51°17.265 2°52.401 13.0368 3.64086 25.642111 -2.458615
2012-03-09 09:05:20 51°17.269 2°52.395 13.0188 3.656394 25.763867 -2.458615
2012-03-09 09:05:25 51°17.275 2°52.389 13.0167 3.648316 25.701255 -2.458615
2012-03-09 09:05:30 51°17.28 2°52.381 13.021 3.644588 25.672616 -2.458615
2012-03-09 09:05:36 51°17.287 2°52.373 13.0167 3.646867 25.690871 -2.458615
2012-03-09 09:05:40 51°17.292 2°52.367 13.0307 3.639307 25.632322 -2.458615
2012-03-09 09:05:45 51°17.297 2°52.36 13.0287 3.639307 25.632322 -2.458615
2012-03-09 09:05:50 51°17.303 2°52.352 13.0422 3.653805 25.745992 -2.458615
2012-03-09 09:05:55 51°17.308 2°52.345 13.0424 3.629676 25.558093 -2.458615
2012-03-09 09:06:00 51°17.314 2°52.337 12.9916 3.657844 25.77801 -2.458615
2012-03-09 09:06:05 51°17.319 2°52.33 13.0178 3.645935 25.685934 -2.458615
2012-03-09 09:06:10 51°17.325 2°52.322 13.0284 3.638168 25.625765 -2.458615
2012-03-09 09:06:15 51°17.33 2°52.314 13.0206 3.638168 25.625765 -2.458615
2012-03-09 09:06:20 51°17.335 2°52.307 13.0384 3.646659 25.692531 -2.458615
2012-03-09 09:06:25 51°17.341 2°52.299 13.0218 3.632783 25.584667 -2.458615
2012-03-09 09:06:30 51°17.346 2°52.292 13.0295 3.638996 25.633633 -2.458615
2012-03-09 09:06:35 51°17.352 2°52.284 13.0371 3.64376 25.671293 -2.458615
2012-03-09 09:06:40 51°17.357 2°52.277 13.0309 3.645003 25.681465 -2.458615
2012-03-09 09:06:45 51°17.363 2°52.269 13.0283 3.645003 25.681465 -2.458615
2012-03-09 09:06:50 51°17.368 2°52.262 13.035 3.653287 25.74664 -2.458615
2012-03-09 09:06:55 51°17.373 2°52.254 13.0361 3.645935 25.68968 -2.458615
2012-03-09 09:07:00 51°17.379 2°52.247 13.0237 3.637132 25.621416 -2.458615
2012-03-09 09:07:05 51°17.385 2°52.239 13.0226 3.633508 25.593589 -2.458615
2012-03-09 09:07:10 51°17.39 2°52.232 13.0219 3.643449 25.671674 -2.458615
2012-03-09 09:07:15 51°17.396 2°52.225 13.0251 3.643449 25.671674 -2.458615
2012-03-09 09:07:20 51°17.402 2°52.218 13.0414 3.641378 25.655969 -2.458615
2012-03-09 09:07:25 51°17.408 2°52.212 13.0211 3.63765 25.627327 -2.458615
2012-03-09 09:07:30 51°17.413 2°52.205 13.0468 3.638996 25.638305 -2.458615
2012-03-09 09:07:36 51°17.42 2°52.197 13.0273 3.649663 25.722078 -2.458615
2012-03-09 09:07:40 51°17.425 2°52.192 13.0279 3.648938 25.716884 -2.458615
2012-03-09 09:07:44 51°17.43 2°52.187 13.0433 3.648938 25.716884 -2.458615
2012-03-09 09:07:50 51°17.437 2°52.179 13.0287 3.63444 25.604131 -2.458615
2012-03-09 09:07:56 51°17.444 2°52.172 13.0438 3.651423 25.737239 -2.458615
2012-03-09 09:08:00 51°17.449 2°52.167 13.0452 3.634129 25.602639 -2.458615
2012-03-09 09:08:05 51°17.455 2°52.161 13.0481 3.643553 25.676695 -2.458615
2012-03-09 09:08:10 51°17.461 2°52.155 13.0508 3.649456 25.723274 -2.458615
2012-03-09 09:08:16 51°17.468 2°52.148 13.0445 3.649456 25.723274 -2.458615
2012-03-09 09:08:20 51°17.473 2°52.143 13.0532 3.641792 25.663881 -2.458615
2012-03-09 09:08:25 51°17.479 2°52.137 13.0425 3.638168 25.636042 -2.458615
2012-03-09 09:08:30 51°17.485 2°52.131 13.0511 3.643035 25.674523 -2.458615
2012-03-09 09:08:35 51°17.491 2°52.124 13.0565 3.633819 25.603014 -2.458615
2012-03-09 09:08:40 51°17.497 2°52.118 13.0228 3.63589 25.619653 -2.458615
2012-03-09 09:08:45 51°17.502 2°52.111 13.0469 3.63589 25.619653 -2.458615
2012-03-09 09:08:50 51°17.508 2°52.104 13.042 3.643139 25.676737 -2.458615
2012-03-09 09:08:55 51°17.514 2°52.098 13.0298 3.645728 25.697429 -2.458615
2012-03-09 09:09:00 51°17.52 2°52.091 13.0312 3.652252 25.748875 -2.458615
2012-03-09 09:09:05 51°17.525 2°52.084 13.0451 3.640343 25.6563 -2.458615
2012-03-09 09:09:10 51°17.531 2°52.077 13.0523 3.643139 25.678609 -2.458615
2012-03-09 09:09:15 51°17.536 2°52.07 13.0498 3.643139 25.678609 -2.458615
2012-03-09 09:09:20 51°17.542 2°52.063 13.0499 3.635372 25.618412 -2.458615
2012-03-09 09:09:25 51°17.547 2°52.056 13.0616 3.632783 25.598195 -2.458615
2012-03-09 09:09:30 51°17.553 2°52.048 13.0624 3.634751 25.614027 -2.458615
2012-03-09 09:09:36 51°17.559 2°52.039 13.0551 3.644589 25.691341 -2.458615
2012-03-09 09:09:40 51°17.564 2°52.033 13.0478 3.631955 25.593126 -2.458615
2012-03-09 09:09:45 51°17.569 2°52.026 13.0562 3.631955 25.593126 -2.458615
2012-03-09 09:09:50 51°17.575 2°52.018 13.0496 3.64345 25.683378 -2.458615
2012-03-09 09:09:56 51°17.581 2°52.009 13.0486 3.640136 25.657957 -2.458615
2012-03-09 09:10:00 51°17.586 2°52.003 13.0643 3.638893 25.648718 -2.458615
2012-03-09 09:10:05 51°17.591 2°51.995 13.0592 3.646038 25.705012 -2.458615
2012-03-09 09:10:10 51°17.597 2°51.987 13.0515 3.642 25.673456 -2.458615
2012-03-09 09:10:15 51°17.602 2°51.98 13.0569 3.642 25.673456 -2.458615
2012-03-09 09:10:20 51°17.607 2°51.972 13.0569 3.640654 25.663874 -2.458615
2012-03-09 09:10:25 51°17.613 2°51.964 13.0295 3.627709 25.56277 -2.458615
2012-03-09 09:10:30 51°17.618 2°51.957 13.041 3.645728 25.703991 -2.458615
2012-03-09 09:10:35 51°17.623 2°51.949 13.0458 3.637858 25.642967 -2.458615
2012-03-09 09:10:40 51°17.629 2°51.942 13.0213 3.621289 25.514039 -2.458615
2012-03-09 09:10:45 51°17.634 2°51.934 13.0405 3.621289 25.514039 -2.458615
2012-03-09 09:10:50 51°17.64 2°51.926 13.0262 3.639618 25.657656 -2.458615
2012-03-09 09:10:55 51°17.645 2°51.918 13.0591 3.645003 25.700202 -2.458615
2012-03-09 09:11:00 51°17.651 2°51.911 13.0371 3.624603 25.540842 -2.458615
2012-03-09 09:11:05 51°17.656 2°51.904 13.0444 3.628227 25.570078 -2.458615
2012-03-09 09:11:10 51°17.661 2°51.896 13.0457 3.649974 25.73999 -2.458615
2012-03-09 09:11:15 51°17.667 2°51.889 13.0529 3.649974 25.73999 -2.458615
2012-03-09 09:11:20 51°17.672 2°51.882 13.0393 3.644692 25.69918 -2.458615
2012-03-09 09:11:24 51°17.677 2°51.876 13.0385 3.641793 25.676989 -2.458615
2012-03-09 09:11:30 51°17.684 2°51.868 13.0526 3.642932 25.686828 -2.458615
2012-03-09 09:11:35 51°17.689 2°51.861 13.0314 3.645624 25.707871 -2.458615
2012-03-09 09:11:40 51°17.695 2°51.854 13.0308 3.624706 25.544913 -2.458615
2012-03-09 09:11:45 51°17.701 2°51.847 13.0285 3.620047 25.508525 -2.458615
2012-03-09 09:11:50 51°17.706 2°51.84 13.009 3.620047 25.508525 -2.458615
2012-03-09 09:11:56 51°17.713 2°51.833 13.0128 3.651631 25.756231 -2.458615
2012-03-09 09:12:00 51°17.718 2°51.828 13.0355 3.651009 25.751373 -2.458615
2012-03-09 09:12:05 51°17.724 2°51.821 13.0406 3.637547 25.646621 -2.458615
2012-03-09 09:12:10 51°17.729 2°51.815 13.0565 3.640757 25.672175 -2.458615
2012-03-09 09:12:16 51°17.736 2°51.807 13.0586 3.640757 25.672175 -2.458615
2012-03-09 09:12:20 51°17.741 2°51.802 13.0478 3.646349 25.716352 -2.458615
2012-03-09 09:12:25 51°17.746 2°51.795 13.0483 3.629988 25.588961 -2.458615
2012-03-09 09:12:30 51°17.752 2°51.789 13.0544 3.641482 25.679246 -2.458615
2012-03-09 09:12:36 51°17.759 2°51.781 13.0439 3.628331 25.576952 -2.458615
2012-03-09 09:12:40 51°17.764 2°51.776 13.036 3.630402 25.593598 -2.458615
2012-03-09 09:12:45 51°17.769 2°51.769 13.0508 3.630402 25.593598 -2.458615
2012-03-09 09:12:50 51°17.775 2°51.763 13.0404 3.621393 25.523692 -2.458615
2012-03-09 09:12:55 51°17.781 2°51.756 13.033 3.64024 25.670939 -2.458615
2012-03-09 09:13:00 51°17.787 2°51.749 13.0375 3.654738 25.784756 -2.458615
2012-03-09 09:13:05 51°17.792 2°51.742 13.0382 3.620875 25.52058 -2.458615
2012-03-09 09:13:10 51°17.798 2°51.735 13.0493 3.634026 25.623786 -2.458615
2012-03-09 09:13:15 51°17.803 2°51.728 13.0362 3.634026 25.623786 -2.458615
2012-03-09 09:13:20 51°17.809 2°51.721 13.0464 3.618908 25.50568 -2.458615
2012-03-09 09:13:25 51°17.815 2°51.714 13.0629 3.637961 25.655006 -2.458615
2012-03-09 09:13:30 51°17.82 2°51.707 13.0609 3.612695 25.458094 -2.458615
2012-03-09 09:13:35 51°17.826 2°51.7 13.0519 3.647799 25.73238 -2.458615
2012-03-09 09:13:40 51°17.832 2°51.693 13.0593 3.647903 25.73366 -2.458615
2012-03-09 09:13:45 51°17.837 2°51.686 13.047 3.647903 25.73366 -2.458615
2012-03-09 09:13:50 51°17.843 2°51.678 13.058 3.644175 25.704981 -2.458615
2012-03-09 09:13:55 51°17.848 2°51.671 13.0499 3.644693 25.709498 -2.458615
2012-03-09 09:14:00 51°17.854 2°51.664 13.0279 3.644485 25.708348 -2.458615
2012-03-09 09:14:05 51°17.859 2°51.657 13.0461 3.622635 25.538057 -2.458615
2012-03-09 09:14:10 51°17.865 2°51.65 13.0564 3.645314 25.715764 -2.458615
2012-03-09 09:14:16 51°17.871 2°51.64 13.0383 3.645314 25.715764 -2.458615
2012-03-09 09:14:20 51°17.876 2°51.634 13.0304 3.632266 25.613769 -2.458615
2012-03-09 09:14:25 51°17.881 2°51.626 13.0566 3.637961 25.658752 -2.458615
2012-03-09 09:14:30 51°17.887 2°51.618 13.0395 3.614041 25.472324 -2.458615
2012-03-09 09:14:36 51°17.894 2°51.61 13.0377 3.645728 25.719942 -2.458615